<?xml version='1.0' encoding='UTF-8'?><gpx version="1.1" creator="JPX - https://github.com/jenetics/jpx" xmlns="http://www.topografix.com/GPX/1/1"><trk><trkseg><trkpt lat="44.645943674513894" lon="26.071864288027445"><ele>93.0</ele><time>2026-04-26T13:20:54Z</time></trkpt><trkpt lat="44.645998302353114" lon="26.071934277535487"><ele>93.0</ele><time>2026-04-26T13:20:57Z</time></trkpt><trkpt lat="44.64609041575486" lon="26.072033363905597"><ele>93.0</ele><time>2026-04-26T13:21:32Z</time></trkpt><trkpt lat="44.64616075840229" lon="26.072133041587595"><ele>93.0</ele><time>2026-04-26T13:21:33Z</time></trkpt><trkpt lat="44.64625393708013" lon="26.072251743325833"><ele>93.0</ele><time>2026-04-26T13:21:34Z</time></trkpt><trkpt lat="44.64636541489968" lon="26.07240537439654"><ele>94.0</ele><time>2026-04-26T13:21:35Z</time></trkpt><trkpt lat="44.64649263856182" lon="26.07257313209109"><ele>95.0</ele><time>2026-04-26T13:21:36Z</time></trkpt><trkpt lat="44.646612156087016" lon="26.072733602291283"><ele>96.0</ele><time>2026-04-26T13:21:37Z</time></trkpt><trkpt lat="44.64671959104667" lon="26.072881019053447"><ele>96.0</ele><time>2026-04-26T13:21:38Z</time></trkpt><trkpt lat="44.64684072431132" lon="26.073037369849654"><ele>96.0</ele><time>2026-04-26T13:21:39Z</time></trkpt><trkpt lat="44.64697372949633" lon="26.07319139501602"><ele>96.0</ele><time>2026-04-26T13:21:40Z</time></trkpt><trkpt lat="44.647111164795064" lon="26.073339698038815"><ele>96.33333333333334</ele><time>2026-04-26T13:21:41Z</time></trkpt><trkpt lat="44.647247886328614" lon="26.073476517555097"><ele>96.66666666666667</ele><time>2026-04-26T13:21:42Z</time></trkpt><trkpt lat="44.64738747664603" lon="26.073603645725907"><ele>97.0</ele><time>2026-04-26T13:21:43Z</time></trkpt><trkpt lat="44.64753621510267" lon="26.0737097298289"><ele>97.0</ele><time>2026-04-26T13:21:44Z</time></trkpt><trkpt lat="44.64768660214572" lon="26.07380579120538"><ele>97.0</ele><time>2026-04-26T13:21:45Z</time></trkpt><trkpt lat="44.6478464547905" lon="26.073893156304347"><ele>97.0</ele><time>2026-04-26T13:21:46Z</time></trkpt><trkpt lat="44.64803561448454" lon="26.07396891003819"><ele>97.0</ele><time>2026-04-26T13:21:47Z</time></trkpt><trkpt lat="44.648241604621184" lon="26.074045953692615"><ele>97.0</ele><time>2026-04-26T13:21:48Z</time></trkpt><trkpt lat="44.64845864178326" lon="26.074120236726326"><ele>97.0</ele><time>2026-04-26T13:21:49Z</time></trkpt><trkpt lat="44.64868974580515" lon="26.07417729054724"><ele>97.0</ele><time>2026-04-26T13:21:50Z</time></trkpt><trkpt lat="44.64893702352583" lon="26.07422340380943"><ele>97.0</ele><time>2026-04-26T13:21:51Z</time></trkpt><trkpt lat="44.64919070925422" lon="26.074263904379826"><ele>97.0</ele><time>2026-04-26T13:21:52Z</time></trkpt><trkpt lat="44.64945193197182" lon="26.074301986283526"><ele>97.0</ele><time>2026-04-26T13:21:53Z</time></trkpt><trkpt lat="44.64971968057695" lon="26.074335216275582"><ele>96.5</ele><time>2026-04-26T13:21:54Z</time></trkpt><trkpt lat="44.649994770779294" lon="26.07437460102553"><ele>96.0</ele><time>2026-04-26T13:21:55Z</time></trkpt><trkpt lat="44.650277534849" lon="26.07441254418837"><ele>96.0</ele><time>2026-04-26T13:21:56Z</time></trkpt><trkpt lat="44.650558893010114" lon="26.074450604382523"><ele>96.0</ele><time>2026-04-26T13:21:57Z</time></trkpt><trkpt lat="44.650847676367796" lon="26.074488028669297"><ele>96.5</ele><time>2026-04-26T13:21:58Z</time></trkpt><trkpt lat="44.65113758091274" lon="26.074531632237242"><ele>97.0</ele><time>2026-04-26T13:21:59Z</time></trkpt><trkpt lat="44.65143191141028" lon="26.074571898134764"><ele>97.0</ele><time>2026-04-26T13:22:00Z</time></trkpt><trkpt lat="44.65172941456538" lon="26.074614054134262"><ele>97.0</ele><time>2026-04-26T13:22:01Z</time></trkpt><trkpt lat="44.652025198552714" lon="26.074658455615268"><ele>97.5</ele><time>2026-04-26T13:22:02Z</time></trkpt><trkpt lat="44.65232205753935" lon="26.07470396936335"><ele>98.0</ele><time>2026-04-26T13:22:03Z</time></trkpt><trkpt lat="44.65261910777372" lon="26.074762699201067"><ele>98.0</ele><time>2026-04-26T13:22:03.999Z</time></trkpt><trkpt lat="44.6529207677612" lon="26.074813554781265"><ele>98.0</ele><time>2026-04-26T13:22:04.999Z</time></trkpt><trkpt lat="44.65322346169513" lon="26.074852669668008"><ele>98.0</ele><time>2026-04-26T13:22:05.999Z</time></trkpt><trkpt lat="44.65352591293829" lon="26.074892269899426"><ele>98.0</ele><time>2026-04-26T13:22:06.999Z</time></trkpt><trkpt lat="44.653828959325985" lon="26.074936020267092"><ele>98.5</ele><time>2026-04-26T13:22:07.999Z</time></trkpt><trkpt lat="44.654125115268926" lon="26.07498258088078"><ele>99.0</ele><time>2026-04-26T13:22:08.999Z</time></trkpt><trkpt lat="44.654395125785356" lon="26.07502415666121"><ele>99.5</ele><time>2026-04-26T13:22:09.999Z</time></trkpt><trkpt lat="44.6546461991521" lon="26.075060242817763"><ele>100.0</ele><time>2026-04-26T13:22:10.999Z</time></trkpt><trkpt lat="44.65488435473668" lon="26.07509072271838"><ele>100.0</ele><time>2026-04-26T13:22:11.999Z</time></trkpt><trkpt lat="44.6551130729034" lon="26.075118895791444"><ele>100.0</ele><time>2026-04-26T13:22:12.999Z</time></trkpt><trkpt lat="44.65532469047632" lon="26.07515020182656"><ele>100.0</ele><time>2026-04-26T13:22:13.999Z</time></trkpt><trkpt lat="44.65552801880317" lon="26.075178673417305"><ele>100.0</ele><time>2026-04-26T13:22:14.999Z</time></trkpt><trkpt lat="44.65572972675317" lon="26.07520254581574"><ele>100.0</ele><time>2026-04-26T13:22:15.999Z</time></trkpt><trkpt lat="44.65592933657479" lon="26.075224608756262"><ele>100.0</ele><time>2026-04-26T13:22:16.999Z</time></trkpt><trkpt lat="44.656128468784445" lon="26.075253763811762"><ele>100.0</ele><time>2026-04-26T13:22:17.999Z</time></trkpt><trkpt lat="44.65632053503313" lon="26.075283809214536"><ele>100.0</ele><time>2026-04-26T13:22:18.999Z</time></trkpt><trkpt lat="44.65651858187068" lon="26.07531526037089"><ele>100.0</ele><time>2026-04-26T13:22:19.999Z</time></trkpt><trkpt lat="44.6567272817444" lon="26.075345121065716"><ele>100.0</ele><time>2026-04-26T13:22:20.999Z</time></trkpt><trkpt lat="44.65694168504866" lon="26.075376955817436"><ele>100.0</ele><time>2026-04-26T13:22:21.999Z</time></trkpt><trkpt lat="44.65716256696553" lon="26.0754084547675"><ele>100.0</ele><time>2026-04-26T13:22:23Z</time></trkpt><trkpt lat="44.65738537936007" lon="26.075440947106145"><ele>100.0</ele><time>2026-04-26T13:22:24Z</time></trkpt><trkpt lat="44.657596389925665" lon="26.07546246488593"><ele>100.0</ele><time>2026-04-26T13:22:25Z</time></trkpt><trkpt lat="44.657806368200404" lon="26.07548816145408"><ele>100.0</ele><time>2026-04-26T13:22:26Z</time></trkpt><trkpt lat="44.65802377067711" lon="26.075518239195503"><ele>100.0</ele><time>2026-04-26T13:22:27Z</time></trkpt><trkpt lat="44.65823794854198" lon="26.07554692238492"><ele>100.0</ele><time>2026-04-26T13:22:28Z</time></trkpt><trkpt lat="44.65845769530975" lon="26.075575461965617"><ele>100.0</ele><time>2026-04-26T13:22:29Z</time></trkpt><trkpt lat="44.658684002460014" lon="26.0756085016519"><ele>99.66666666666667</ele><time>2026-04-26T13:22:30Z</time></trkpt><trkpt lat="44.65890603754858" lon="26.075637047932357"><ele>99.33333333333334</ele><time>2026-04-26T13:22:31Z</time></trkpt><trkpt lat="44.65912267298928" lon="26.075666494891937"><ele>99.0</ele><time>2026-04-26T13:22:32Z</time></trkpt><trkpt lat="44.65934633526312" lon="26.07569725023312"><ele>98.0</ele><time>2026-04-26T13:22:33Z</time></trkpt><trkpt lat="44.65958505162512" lon="26.075735507818194"><ele>97.0</ele><time>2026-04-26T13:22:34Z</time></trkpt><trkpt lat="44.65983238374938" lon="26.075769646705698"><ele>97.5</ele><time>2026-04-26T13:22:35Z</time></trkpt><trkpt lat="44.66007070706884" lon="26.07579893441276"><ele>98.0</ele><time>2026-04-26T13:22:36Z</time></trkpt><trkpt lat="44.66030086364256" lon="26.07583445353722"><ele>98.0</ele><time>2026-04-26T13:22:37Z</time></trkpt><trkpt lat="44.66051125435713" lon="26.075861127342655"><ele>98.0</ele><time>2026-04-26T13:22:38Z</time></trkpt><trkpt lat="44.660710567213734" lon="26.07588981257753"><ele>98.0</ele><time>2026-04-26T13:22:39Z</time></trkpt><trkpt lat="44.660897836613856" lon="26.075919807691694"><ele>98.0</ele><time>2026-04-26T13:22:40Z</time></trkpt><trkpt lat="44.66107190799054" lon="26.075947293795018"><ele>98.0</ele><time>2026-04-26T13:22:41Z</time></trkpt><trkpt lat="44.661261196427326" lon="26.0759787180091"><ele>98.0</ele><time>2026-04-26T13:22:42Z</time></trkpt><trkpt lat="44.66145824725419" lon="26.076000341467743"><ele>98.0</ele><time>2026-04-26T13:22:43Z</time></trkpt><trkpt lat="44.661666483191695" lon="26.076026505071436"><ele>98.0</ele><time>2026-04-26T13:22:44Z</time></trkpt><trkpt lat="44.661882877288335" lon="26.076054654132026"><ele>98.0</ele><time>2026-04-26T13:22:45Z</time></trkpt><trkpt lat="44.662118201116094" lon="26.076087051202425"><ele>98.0</ele><time>2026-04-26T13:22:46Z</time></trkpt><trkpt lat="44.66236597537824" lon="26.076120434538627"><ele>98.0</ele><time>2026-04-26T13:22:47Z</time></trkpt><trkpt lat="44.66262047111851" lon="26.076155686410765"><ele>97.0</ele><time>2026-04-26T13:22:48Z</time></trkpt><trkpt lat="44.66288709228472" lon="26.076183799101166"><ele>96.0</ele><time>2026-04-26T13:22:49Z</time></trkpt><trkpt lat="44.66316126066627" lon="26.076221169394852"><ele>96.0</ele><time>2026-04-26T13:22:50Z</time></trkpt><trkpt lat="44.663434718360726" lon="26.07626603756178"><ele>96.0</ele><time>2026-04-26T13:22:51Z</time></trkpt><trkpt lat="44.66371483794178" lon="26.076302715974393"><ele>96.0</ele><time>2026-04-26T13:22:52Z</time></trkpt><trkpt lat="44.66400561495856" lon="26.07633763434679"><ele>96.0</ele><time>2026-04-26T13:22:53Z</time></trkpt><trkpt lat="44.66428093623497" lon="26.076379191349936"><ele>97.0</ele><time>2026-04-26T13:22:54Z</time></trkpt><trkpt lat="44.664520942035004" lon="26.076412496639872"><ele>98.0</ele><time>2026-04-26T13:22:55Z</time></trkpt><trkpt lat="44.66474189772637" lon="26.076438384050444"><ele>98.0</ele><time>2026-04-26T13:22:56Z</time></trkpt><trkpt lat="44.66494697683806" lon="26.076470369463607"><ele>98.0</ele><time>2026-04-26T13:22:57Z</time></trkpt><trkpt lat="44.66514501221628" lon="26.0764993457382"><ele>98.0</ele><time>2026-04-26T13:22:58Z</time></trkpt><trkpt lat="44.66533450919056" lon="26.07652813722923"><ele>98.0</ele><time>2026-04-26T13:22:59Z</time></trkpt><trkpt lat="44.665532470497105" lon="26.07655441810939"><ele>98.0</ele><time>2026-04-26T13:23:00Z</time></trkpt><trkpt lat="44.66574107161172" lon="26.07658255486645"><ele>98.0</ele><time>2026-04-26T13:23:01Z</time></trkpt><trkpt lat="44.665941631687446" lon="26.076607543974504"><ele>97.33333333333333</ele><time>2026-04-26T13:23:02Z</time></trkpt><trkpt lat="44.66612599586645" lon="26.076629378511804"><ele>96.66666666666666</ele><time>2026-04-26T13:23:03Z</time></trkpt><trkpt lat="44.66631160543107" lon="26.07665635515242"><ele>96.0</ele><time>2026-04-26T13:23:04Z</time></trkpt><trkpt lat="44.666494604093465" lon="26.076684119710123"><ele>96.0</ele><time>2026-04-26T13:23:05Z</time></trkpt><trkpt lat="44.666660461879864" lon="26.076709062337844"><ele>96.0</ele><time>2026-04-26T13:23:06Z</time></trkpt><trkpt lat="44.66680800159302" lon="26.07672484959814"><ele>96.0</ele><time>2026-04-26T13:23:07Z</time></trkpt><trkpt lat="44.66694040566242" lon="26.07674670746248"><ele>96.0</ele><time>2026-04-26T13:23:08Z</time></trkpt><trkpt lat="44.66705585591774" lon="26.07676979824991"><ele>96.4</ele><time>2026-04-26T13:23:09Z</time></trkpt><trkpt lat="44.66716584143086" lon="26.07679297856133"><ele>96.8</ele><time>2026-04-26T13:23:10Z</time></trkpt><trkpt lat="44.66727538695478" lon="26.07681173814837"><ele>97.2</ele><time>2026-04-26T13:23:11Z</time></trkpt><trkpt lat="44.667378164013165" lon="26.076821879314117"><ele>97.60000000000001</ele><time>2026-04-26T13:23:12Z</time></trkpt><trkpt lat="44.667481155213586" lon="26.076825150018124"><ele>98.0</ele><time>2026-04-26T13:23:13Z</time></trkpt><trkpt lat="44.66757553515114" lon="26.076824936581268"><ele>97.99999999999999</ele><time>2026-04-26T13:23:14Z</time></trkpt><trkpt lat="44.66765927178516" lon="26.076826498862143"><ele>98.0</ele><time>2026-04-26T13:23:15Z</time></trkpt><trkpt lat="44.667734824356856" lon="26.07683101668183"><ele>98.0</ele><time>2026-04-26T13:23:16Z</time></trkpt><trkpt lat="44.66779767291495" lon="26.07685738451892"><ele>98.0</ele><time>2026-04-26T13:23:17Z</time></trkpt><trkpt lat="44.66785555493051" lon="26.076893023696385"><ele>97.99999999999999</ele><time>2026-04-26T13:23:18Z</time></trkpt><trkpt lat="44.66794459716678" lon="26.076997387969566"><ele>98.0</ele><time>2026-04-26T13:23:20Z</time></trkpt><trkpt lat="44.667999231463995" lon="26.07713189669499"><ele>98.2</ele><time>2026-04-26T13:23:22Z</time></trkpt><trkpt lat="44.668019198554525" lon="26.077239805775132"><ele>98.4</ele><time>2026-04-26T13:23:23Z</time></trkpt><trkpt lat="44.66803618492984" lon="26.077376397877934"><ele>98.60000000000001</ele><time>2026-04-26T13:23:24Z</time></trkpt><trkpt lat="44.66805016109614" lon="26.077524517072316"><ele>98.80000000000001</ele><time>2026-04-26T13:23:25Z</time></trkpt><trkpt lat="44.66805964206533" lon="26.07765158347941"><ele>99.0</ele><time>2026-04-26T13:23:26Z</time></trkpt><trkpt lat="44.66807368026198" lon="26.077791209213284"><ele>98.25</ele><time>2026-04-26T13:23:27Z</time></trkpt><trkpt lat="44.66808905869356" lon="26.077944846273653"><ele>97.5</ele><time>2026-04-26T13:23:28Z</time></trkpt><trkpt lat="44.66810442006254" lon="26.07810667470304"><ele>96.75</ele><time>2026-04-26T13:23:29Z</time></trkpt><trkpt lat="44.66812242620447" lon="26.078279224548304"><ele>96.0</ele><time>2026-04-26T13:23:30Z</time></trkpt><trkpt lat="44.66814483670647" lon="26.078511224412082"><ele>96.0</ele><time>2026-04-26T13:23:31Z</time></trkpt><trkpt lat="44.668169660394724" lon="26.078763223956887"><ele>96.0</ele><time>2026-04-26T13:23:32Z</time></trkpt><trkpt lat="44.6681946217721" lon="26.07903890918251"><ele>96.0</ele><time>2026-04-26T13:23:33Z</time></trkpt><trkpt lat="44.66822011343034" lon="26.07933899234612"><ele>97.0</ele><time>2026-04-26T13:23:34Z</time></trkpt><trkpt lat="44.668248189360256" lon="26.079657632684675"><ele>98.0</ele><time>2026-04-26T13:23:35Z</time></trkpt><trkpt lat="44.66827498464668" lon="26.07998974609536"><ele>98.0</ele><time>2026-04-26T13:23:36Z</time></trkpt><trkpt lat="44.66830491166877" lon="26.080339390693567"><ele>98.0</ele><time>2026-04-26T13:23:37Z</time></trkpt><trkpt lat="44.66833376003618" lon="26.08066439829456"><ele>98.0</ele><time>2026-04-26T13:23:38Z</time></trkpt><trkpt lat="44.66835922745576" lon="26.080967138015602"><ele>98.0</ele><time>2026-04-26T13:23:39Z</time></trkpt><trkpt lat="44.66838329976768" lon="26.081250901099374"><ele>98.0</ele><time>2026-04-26T13:23:40Z</time></trkpt><trkpt lat="44.66840745958727" lon="26.08151719982653"><ele>98.0</ele><time>2026-04-26T13:23:41Z</time></trkpt><trkpt lat="44.66843202875453" lon="26.08177220730775"><ele>98.0</ele><time>2026-04-26T13:23:42Z</time></trkpt><trkpt lat="44.66845011079627" lon="26.082032162489618"><ele>98.0</ele><time>2026-04-26T13:23:43Z</time></trkpt><trkpt lat="44.66847754028765" lon="26.082291614984616"><ele>98.0</ele><time>2026-04-26T13:23:44Z</time></trkpt><trkpt lat="44.66850527610227" lon="26.082564759196437"><ele>98.0</ele><time>2026-04-26T13:23:45Z</time></trkpt><trkpt lat="44.66851900300354" lon="26.08284416224087"><ele>98.0</ele><time>2026-04-26T13:23:46Z</time></trkpt><trkpt lat="44.66854858899852" lon="26.083122475762046"><ele>98.0</ele><time>2026-04-26T13:23:47Z</time></trkpt><trkpt lat="44.668574511111245" lon="26.083389831470438"><ele>98.0</ele><time>2026-04-26T13:23:48Z</time></trkpt><trkpt lat="44.66859285343799" lon="26.083650544114494"><ele>98.0</ele><time>2026-04-26T13:23:49Z</time></trkpt><trkpt lat="44.668613681577604" lon="26.083896502325256"><ele>97.66666666666666</ele><time>2026-04-26T13:23:50Z</time></trkpt><trkpt lat="44.66863516889747" lon="26.084125282854043"><ele>97.33333333333334</ele><time>2026-04-26T13:23:51.001Z</time></trkpt><trkpt lat="44.66865097601086" lon="26.084334832307086"><ele>97.0</ele><time>2026-04-26T13:23:52.001Z</time></trkpt><trkpt lat="44.66866667190212" lon="26.08454047801189"><ele>97.0</ele><time>2026-04-26T13:23:53.001Z</time></trkpt><trkpt lat="44.66868666276697" lon="26.084769963205673"><ele>97.0</ele><time>2026-04-26T13:23:54.001Z</time></trkpt><trkpt lat="44.66871358967415" lon="26.085034162823888"><ele>97.0</ele><time>2026-04-26T13:23:55.001Z</time></trkpt><trkpt lat="44.668740982229295" lon="26.085320643130004"><ele>96.66666666666667</ele><time>2026-04-26T13:23:56.001Z</time></trkpt><trkpt lat="44.66876594975923" lon="26.08559798717948"><ele>96.33333333333334</ele><time>2026-04-26T13:23:57.001Z</time></trkpt><trkpt lat="44.66879081555767" lon="26.08587074902533"><ele>96.0</ele><time>2026-04-26T13:23:58.001Z</time></trkpt><trkpt lat="44.66881214380854" lon="26.08611326909328"><ele>96.0</ele><time>2026-04-26T13:23:59.001Z</time></trkpt><trkpt lat="44.66882991482299" lon="26.086334185204944"><ele>96.0</ele><time>2026-04-26T13:24:00.001Z</time></trkpt><trkpt lat="44.66884686718589" lon="26.08654353185593"><ele>96.0</ele><time>2026-04-26T13:24:01.001Z</time></trkpt><trkpt lat="44.668865126788596" lon="26.086733674301215"><ele>96.0</ele><time>2026-04-26T13:24:02.001Z</time></trkpt><trkpt lat="44.66888357129028" lon="26.086907854371688"><ele>96.33333333333334</ele><time>2026-04-26T13:24:03.001Z</time></trkpt><trkpt lat="44.66889738720116" lon="26.087082780868293"><ele>96.66666666666667</ele><time>2026-04-26T13:24:04.001Z</time></trkpt><trkpt lat="44.66891361783384" lon="26.087288992589826"><ele>97.0</ele><time>2026-04-26T13:24:05.001Z</time></trkpt><trkpt lat="44.668935715058836" lon="26.08754436702415"><ele>97.0</ele><time>2026-04-26T13:24:06.001Z</time></trkpt><trkpt lat="44.66895766338378" lon="26.087809157673227"><ele>97.0</ele><time>2026-04-26T13:24:07.001Z</time></trkpt><trkpt lat="44.66898096159951" lon="26.088081955840796"><ele>97.0</ele><time>2026-04-26T13:24:08.001Z</time></trkpt><trkpt lat="44.66900459482241" lon="26.08834451811529"><ele>97.0</ele><time>2026-04-26T13:24:09.001Z</time></trkpt><trkpt lat="44.669030614040054" lon="26.08861042073925"><ele>97.0</ele><time>2026-04-26T13:24:10Z</time></trkpt><trkpt lat="44.66905662561546" lon="26.088885641032583"><ele>97.0</ele><time>2026-04-26T13:24:11Z</time></trkpt><trkpt lat="44.669085597948026" lon="26.08917276963259"><ele>97.5</ele><time>2026-04-26T13:24:12Z</time></trkpt><trkpt lat="44.669115116040416" lon="26.08948654327003"><ele>98.0</ele><time>2026-04-26T13:24:13Z</time></trkpt><trkpt lat="44.669148258343526" lon="26.08982107134917"><ele>97.5</ele><time>2026-04-26T13:24:14Z</time></trkpt><trkpt lat="44.66918335485843" lon="26.090163593490292"><ele>97.0</ele><time>2026-04-26T13:24:15Z</time></trkpt><trkpt lat="44.669208260397816" lon="26.09052451637183"><ele>97.0</ele><time>2026-04-26T13:24:16Z</time></trkpt><trkpt lat="44.66923208885143" lon="26.09090180781716"><ele>97.0</ele><time>2026-04-26T13:24:17Z</time></trkpt><trkpt lat="44.669260799255866" lon="26.091265701761703"><ele>97.33333333333334</ele><time>2026-04-26T13:24:18Z</time></trkpt><trkpt lat="44.66928675812918" lon="26.091590551751047"><ele>97.66666666666666</ele><time>2026-04-26T13:24:19Z</time></trkpt><trkpt lat="44.669312363260744" lon="26.091892620017116"><ele>98.0</ele><time>2026-04-26T13:24:20Z</time></trkpt><trkpt lat="44.66933374130812" lon="26.09217563509739"><ele>98.0</ele><time>2026-04-26T13:24:21Z</time></trkpt><trkpt lat="44.66935399902585" lon="26.09244546933416"><ele>98.0</ele><time>2026-04-26T13:24:22Z</time></trkpt><trkpt lat="44.66937647032521" lon="26.09269511623472"><ele>98.0</ele><time>2026-04-26T13:24:23Z</time></trkpt><trkpt lat="44.66939665629468" lon="26.09293067124352"><ele>98.0</ele><time>2026-04-26T13:24:24Z</time></trkpt><trkpt lat="44.669411631799505" lon="26.093150437963697"><ele>98.0</ele><time>2026-04-26T13:24:25Z</time></trkpt><trkpt lat="44.66942747238933" lon="26.093371192654747"><ele>98.0</ele><time>2026-04-26T13:24:26Z</time></trkpt><trkpt lat="44.66944502837898" lon="26.093579135922912"><ele>97.33333333333333</ele><time>2026-04-26T13:24:27Z</time></trkpt><trkpt lat="44.66946354061735" lon="26.093779192543018"><ele>96.66666666666666</ele><time>2026-04-26T13:24:28Z</time></trkpt><trkpt lat="44.669488805324406" lon="26.094007199679773"><ele>96.0</ele><time>2026-04-26T13:24:29Z</time></trkpt><trkpt lat="44.66951653395859" lon="26.094246900691793"><ele>96.0</ele><time>2026-04-26T13:24:30Z</time></trkpt><trkpt lat="44.669543600764754" lon="26.09448246865388"><ele>96.0</ele><time>2026-04-26T13:24:31Z</time></trkpt><trkpt lat="44.66956844852501" lon="26.09471658124198"><ele>96.0</ele><time>2026-04-26T13:24:32Z</time></trkpt><trkpt lat="44.66958791589424" lon="26.094941880360967"><ele>96.0</ele><time>2026-04-26T13:24:33Z</time></trkpt><trkpt lat="44.669602358902424" lon="26.095152246566478"><ele>96.0</ele><time>2026-04-26T13:24:34Z</time></trkpt><trkpt lat="44.669613865387646" lon="26.09534983942778"><ele>96.0</ele><time>2026-04-26T13:24:35Z</time></trkpt><trkpt lat="44.669628209086966" lon="26.09556715421253"><ele>96.0</ele><time>2026-04-26T13:24:36Z</time></trkpt><trkpt lat="44.66965015153683" lon="26.095821279872705"><ele>96.0</ele><time>2026-04-26T13:24:37Z</time></trkpt><trkpt lat="44.66967314972485" lon="26.096090588862122"><ele>96.0</ele><time>2026-04-26T13:24:38Z</time></trkpt><trkpt lat="44.66970966944297" lon="26.09634068322465"><ele>96.0</ele><time>2026-04-26T13:24:39Z</time></trkpt><trkpt lat="44.66976886730839" lon="26.096596053578388"><ele>96.66666666666666</ele><time>2026-04-26T13:24:40Z</time></trkpt><trkpt lat="44.66986207537644" lon="26.096847648883966"><ele>97.33333333333333</ele><time>2026-04-26T13:24:41Z</time></trkpt><trkpt lat="44.66998839246856" lon="26.097091590342696"><ele>98.0</ele><time>2026-04-26T13:24:42Z</time></trkpt><trkpt lat="44.67013909397962" lon="26.097338437821747"><ele>96.0</ele><time>2026-04-26T13:24:43Z</time></trkpt><trkpt lat="44.67027671902045" lon="26.097620326972635"><ele>94.0</ele><time>2026-04-26T13:24:44Z</time></trkpt><trkpt lat="44.67042507050515" lon="26.097889212114893"><ele>94.0</ele><time>2026-04-26T13:24:45Z</time></trkpt><trkpt lat="44.67058015237682" lon="26.098171242086384"><ele>94.0</ele><time>2026-04-26T13:24:46Z</time></trkpt><trkpt lat="44.6707438267186" lon="26.09846698714993"><ele>96.0</ele><time>2026-04-26T13:24:47Z</time></trkpt><trkpt lat="44.67091251063447" lon="26.098772254228685"><ele>98.0</ele><time>2026-04-26T13:24:48Z</time></trkpt><trkpt lat="44.671086363008925" lon="26.099089703369252"><ele>95.5</ele><time>2026-04-26T13:24:49Z</time></trkpt><trkpt lat="44.6712692891995" lon="26.099400342882603"><ele>93.0</ele><time>2026-04-26T13:24:50Z</time></trkpt><trkpt lat="44.67144825997698" lon="26.099734189006263"><ele>94.0</ele><time>2026-04-26T13:24:51Z</time></trkpt><trkpt lat="44.67163267062723" lon="26.100078212557825"><ele>95.0</ele><time>2026-04-26T13:24:52Z</time></trkpt><trkpt lat="44.67182499613858" lon="26.100429619528914"><ele>94.5</ele><time>2026-04-26T13:24:53Z</time></trkpt><trkpt lat="44.67201185635178" lon="26.10078729746644"><ele>94.0</ele><time>2026-04-26T13:24:54Z</time></trkpt><trkpt lat="44.6721986959105" lon="26.101131546970045"><ele>94.0</ele><time>2026-04-26T13:24:55Z</time></trkpt><trkpt lat="44.67236909010863" lon="26.101446156751877"><ele>94.0</ele><time>2026-04-26T13:24:56Z</time></trkpt><trkpt lat="44.67252623691623" lon="26.101740350932353"><ele>93.5</ele><time>2026-04-26T13:24:57Z</time></trkpt><trkpt lat="44.67267516322038" lon="26.102017358384447"><ele>93.0</ele><time>2026-04-26T13:24:58Z</time></trkpt><trkpt lat="44.6728208986432" lon="26.10228417348711"><ele>93.0</ele><time>2026-04-26T13:24:59Z</time></trkpt><trkpt lat="44.672968977845045" lon="26.102551585457437"><ele>93.0</ele><time>2026-04-26T13:25:00Z</time></trkpt><trkpt lat="44.67310925907751" lon="26.10282314727175"><ele>93.0</ele><time>2026-04-26T13:25:01Z</time></trkpt><trkpt lat="44.673251348570375" lon="26.103080436407197"><ele>93.0</ele><time>2026-04-26T13:25:02Z</time></trkpt><trkpt lat="44.67339735016961" lon="26.103324912300206"><ele>93.0</ele><time>2026-04-26T13:25:03Z</time></trkpt><trkpt lat="44.673521146320894" lon="26.103586553072518"><ele>93.0</ele><time>2026-04-26T13:25:04Z</time></trkpt><trkpt lat="44.67364631500132" lon="26.10382789712766"><ele>93.0</ele><time>2026-04-26T13:25:05Z</time></trkpt><trkpt lat="44.673763712944854" lon="26.104045598313327"><ele>93.66666666666667</ele><time>2026-04-26T13:25:06Z</time></trkpt><trkpt lat="44.67388053684798" lon="26.10425416084517"><ele>94.33333333333334</ele><time>2026-04-26T13:25:07Z</time></trkpt><trkpt lat="44.673991007923206" lon="26.104447835102725"><ele>95.0</ele><time>2026-04-26T13:25:08Z</time></trkpt><trkpt lat="44.67409197237277" lon="26.104632781181827"><ele>95.0</ele><time>2026-04-26T13:25:09Z</time></trkpt><trkpt lat="44.674184981721" lon="26.104803683666024"><ele>95.0</ele><time>2026-04-26T13:25:10Z</time></trkpt><trkpt lat="44.674275187248156" lon="26.104966958677004"><ele>95.0</ele><time>2026-04-26T13:25:11Z</time></trkpt><trkpt lat="44.674357683635776" lon="26.105121735817523"><ele>95.0</ele><time>2026-04-26T13:25:12Z</time></trkpt><trkpt lat="44.674431622256115" lon="26.105273765836234"><ele>94.5</ele><time>2026-04-26T13:25:13Z</time></trkpt><trkpt lat="44.67450295733314" lon="26.105418432444846"><ele>94.0</ele><time>2026-04-26T13:25:14Z</time></trkpt><trkpt lat="44.67457306337392" lon="26.105544839568015"><ele>93.5</ele><time>2026-04-26T13:25:15Z</time></trkpt><trkpt lat="44.67465457697434" lon="26.10568687927579"><ele>93.0</ele><time>2026-04-26T13:25:16Z</time></trkpt><trkpt lat="44.6747405968266" lon="26.10584681829579"><ele>93.0</ele><time>2026-04-26T13:25:17Z</time></trkpt><trkpt lat="44.67484242839608" lon="26.10603418721074"><ele>93.0</ele><time>2026-04-26T13:25:18Z</time></trkpt><trkpt lat="44.67495467461882" lon="26.106247483313854"><ele>93.0</ele><time>2026-04-26T13:25:19Z</time></trkpt><trkpt lat="44.67507929891793" lon="26.1064810290616"><ele>93.33333333333333</ele><time>2026-04-26T13:25:20Z</time></trkpt><trkpt lat="44.67520068577887" lon="26.106709527339135"><ele>93.66666666666666</ele><time>2026-04-26T13:25:21Z</time></trkpt><trkpt lat="44.675307697755535" lon="26.106914808266968"><ele>94.0</ele><time>2026-04-26T13:25:22Z</time></trkpt><trkpt lat="44.67540890022381" lon="26.107105686028767"><ele>94.0</ele><time>2026-04-26T13:25:23Z</time></trkpt><trkpt lat="44.67550372438457" lon="26.10728556302562"><ele>94.0</ele><time>2026-04-26T13:25:24Z</time></trkpt><trkpt lat="44.675593692327254" lon="26.10745417074048"><ele>94.0</ele><time>2026-04-26T13:25:25Z</time></trkpt><trkpt lat="44.67569040628497" lon="26.107633257951218"><ele>94.33333333333333</ele><time>2026-04-26T13:25:26Z</time></trkpt><trkpt lat="44.675793981232175" lon="26.107825580807532"><ele>94.66666666666667</ele><time>2026-04-26T13:25:27Z</time></trkpt><trkpt lat="44.67588527427752" lon="26.107995716430484"><ele>95.0</ele><time>2026-04-26T13:25:28Z</time></trkpt><trkpt lat="44.67597281921622" lon="26.108156331762263"><ele>95.0</ele><time>2026-04-26T13:25:29Z</time></trkpt><trkpt lat="44.67606033403481" lon="26.10831610708249"><ele>95.0</ele><time>2026-04-26T13:25:30Z</time></trkpt><trkpt lat="44.67615579321478" lon="26.108492022644658"><ele>95.0</ele><time>2026-04-26T13:25:31Z</time></trkpt><trkpt lat="44.676257355039446" lon="26.108681869091054"><ele>95.0</ele><time>2026-04-26T13:25:32Z</time></trkpt><trkpt lat="44.67636439434103" lon="26.108879384399557"><ele>95.0</ele><time>2026-04-26T13:25:33Z</time></trkpt><trkpt lat="44.67647289847574" lon="26.10908015920496"><ele>95.0</ele><time>2026-04-26T13:25:34Z</time></trkpt><trkpt lat="44.67657727949262" lon="26.109273861272477"><ele>95.0</ele><time>2026-04-26T13:25:35Z</time></trkpt><trkpt lat="44.676673992315614" lon="26.109450245554765"><ele>95.0</ele><time>2026-04-26T13:25:36.001Z</time></trkpt><trkpt lat="44.67676697978732" lon="26.109622725180508"><ele>95.0</ele><time>2026-04-26T13:25:37.001Z</time></trkpt><trkpt lat="44.67687263821869" lon="26.109817361553308"><ele>94.33333333333334</ele><time>2026-04-26T13:25:38.001Z</time></trkpt><trkpt lat="44.67698935188903" lon="26.11003366704197"><ele>93.66666666666667</ele><time>2026-04-26T13:25:39.001Z</time></trkpt><trkpt lat="44.67709715548493" lon="26.11023513696083"><ele>93.0</ele><time>2026-04-26T13:25:40.001Z</time></trkpt><trkpt lat="44.67719634556425" lon="26.110417158134496"><ele>93.0</ele><time>2026-04-26T13:25:41.001Z</time></trkpt><trkpt lat="44.67728869629395" lon="26.11058753391992"><ele>93.0</ele><time>2026-04-26T13:25:42.001Z</time></trkpt><trkpt lat="44.677379429904136" lon="26.110752565822168"><ele>93.0</ele><time>2026-04-26T13:25:43.001Z</time></trkpt><trkpt lat="44.67747263352397" lon="26.110925397177397"><ele>93.33333333333333</ele><time>2026-04-26T13:25:44.001Z</time></trkpt><trkpt lat="44.67756764010941" lon="26.111098601641316"><ele>93.66666666666666</ele><time>2026-04-26T13:25:45.001Z</time></trkpt><trkpt lat="44.67766636476789" lon="26.111275224812736"><ele>94.0</ele><time>2026-04-26T13:25:46.001Z</time></trkpt><trkpt lat="44.677765527771015" lon="26.111456718563506"><ele>93.33333333333333</ele><time>2026-04-26T13:25:47.001Z</time></trkpt><trkpt lat="44.67786972329148" lon="26.111644435797448"><ele>92.66666666666667</ele><time>2026-04-26T13:25:48.001Z</time></trkpt><trkpt lat="44.677987673610026" lon="26.11185386170054"><ele>92.0</ele><time>2026-04-26T13:25:49.001Z</time></trkpt><trkpt lat="44.67811894377312" lon="26.11208417709061"><ele>92.0</ele><time>2026-04-26T13:25:50.001Z</time></trkpt><trkpt lat="44.67825949469921" lon="26.112335499549435"><ele>92.0</ele><time>2026-04-26T13:25:51.001Z</time></trkpt><trkpt lat="44.67840121460306" lon="26.112597956084397"><ele>92.5</ele><time>2026-04-26T13:25:52.001Z</time></trkpt><trkpt lat="44.678550731834854" lon="26.112876321883057"><ele>93.0</ele><time>2026-04-26T13:25:53.001Z</time></trkpt><trkpt lat="44.678708276336394" lon="26.113166007007916"><ele>94.0</ele><time>2026-04-26T13:25:54.001Z</time></trkpt><trkpt lat="44.678873532275865" lon="26.11346888943562"><ele>95.0</ele><time>2026-04-26T13:25:55.001Z</time></trkpt><trkpt lat="44.67904358542354" lon="26.113782125862606"><ele>95.5</ele><time>2026-04-26T13:25:56.001Z</time></trkpt><trkpt lat="44.67921318348501" lon="26.114104370071054"><ele>96.0</ele><time>2026-04-26T13:25:57.001Z</time></trkpt><trkpt lat="44.67937488509863" lon="26.114424190580248"><ele>95.5</ele><time>2026-04-26T13:25:58.001Z</time></trkpt><trkpt lat="44.67952806875356" lon="26.114720991164905"><ele>95.0</ele><time>2026-04-26T13:25:59.001Z</time></trkpt><trkpt lat="44.67967234228946" lon="26.114998375958514"><ele>95.0</ele><time>2026-04-26T13:26:00.001Z</time></trkpt><trkpt lat="44.679809620097494" lon="26.11525883420013"><ele>95.0</ele><time>2026-04-26T13:26:01.001Z</time></trkpt><trkpt lat="44.67994107663475" lon="26.115505159468732"><ele>95.0</ele><time>2026-04-26T13:26:02.001Z</time></trkpt><trkpt lat="44.680066362774014" lon="26.11573469694879"><ele>95.0</ele><time>2026-04-26T13:26:03.001Z</time></trkpt><trkpt lat="44.68018435976678" lon="26.11595290086187"><ele>95.0</ele><time>2026-04-26T13:26:04.001Z</time></trkpt><trkpt lat="44.680293659613255" lon="26.116160999971314"><ele>95.0</ele><time>2026-04-26T13:26:05.001Z</time></trkpt><trkpt lat="44.680395082937316" lon="26.11635954970501"><ele>95.0</ele><time>2026-04-26T13:26:06.001Z</time></trkpt><trkpt lat="44.680489151890846" lon="26.116539789363816"><ele>95.0</ele><time>2026-04-26T13:26:07.001Z</time></trkpt><trkpt lat="44.68057704628815" lon="26.11670994073808"><ele>95.0</ele><time>2026-04-26T13:26:08.001Z</time></trkpt><trkpt lat="44.680659374587286" lon="26.116873512817467"><ele>95.0</ele><time>2026-04-26T13:26:09.001Z</time></trkpt><trkpt lat="44.68075174468185" lon="26.11703584215674"><ele>95.0</ele><time>2026-04-26T13:26:10.001Z</time></trkpt><trkpt lat="44.68085890100395" lon="26.117200138331143"><ele>95.0</ele><time>2026-04-26T13:26:11.001Z</time></trkpt><trkpt lat="44.68098792651277" lon="26.117353936010108"><ele>95.33333333333334</ele><time>2026-04-26T13:26:12.001Z</time></trkpt><trkpt lat="44.68114318256788" lon="26.117480876942782"><ele>95.66666666666667</ele><time>2026-04-26T13:26:13.001Z</time></trkpt><trkpt lat="44.681321604890215" lon="26.11758427352461"><ele>96.0</ele><time>2026-04-26T13:26:14.001Z</time></trkpt><trkpt lat="44.68150887141798" lon="26.117663733471975"><ele>96.0</ele><time>2026-04-26T13:26:15.001Z</time></trkpt><trkpt lat="44.68169280742069" lon="26.11775645506408"><ele>96.0</ele><time>2026-04-26T13:26:16Z</time></trkpt><trkpt lat="44.68187008740292" lon="26.117872052715796"><ele>96.0</ele><time>2026-04-26T13:26:17Z</time></trkpt><trkpt lat="44.68203576001691" lon="26.118017402837697"><ele>96.0</ele><time>2026-04-26T13:26:18Z</time></trkpt><trkpt lat="44.682175507002285" lon="26.11819054589482"><ele>96.0</ele><time>2026-04-26T13:26:19Z</time></trkpt><trkpt lat="44.68228898094642" lon="26.11836149499482"><ele>96.0</ele><time>2026-04-26T13:26:20Z</time></trkpt><trkpt lat="44.6823784343559" lon="26.11849717498885"><ele>96.0</ele><time>2026-04-26T13:26:21Z</time></trkpt><trkpt lat="44.68246077825064" lon="26.118618981502213"><ele>96.0</ele><time>2026-04-26T13:26:22Z</time></trkpt><trkpt lat="44.68253725419747" lon="26.1187328418578"><ele>96.0</ele><time>2026-04-26T13:26:23Z</time></trkpt><trkpt lat="44.68261152100018" lon="26.118844818640127"><ele>96.0</ele><time>2026-04-26T13:26:24Z</time></trkpt><trkpt lat="44.68267183339294" lon="26.118936306410827"><ele>96.0</ele><time>2026-04-26T13:26:25Z</time></trkpt><trkpt lat="44.68273248438327" lon="26.119015027596223"><ele>95.8</ele><time>2026-04-26T13:26:26Z</time></trkpt><trkpt lat="44.68279403588659" lon="26.119095591815217"><ele>95.6</ele><time>2026-04-26T13:26:27Z</time></trkpt><trkpt lat="44.68285854236401" lon="26.119182056865455"><ele>95.4</ele><time>2026-04-26T13:26:28Z</time></trkpt><trkpt lat="44.68293148761379" lon="26.119274873579332"><ele>95.2</ele><time>2026-04-26T13:26:29Z</time></trkpt><trkpt lat="44.682990518764996" lon="26.119401814203627"><ele>95.0</ele><time>2026-04-26T13:26:30Z</time></trkpt><trkpt lat="44.683076544770955" lon="26.11951589972043"><ele>95.0</ele><time>2026-04-26T13:26:31Z</time></trkpt><trkpt lat="44.68317684059712" lon="26.11963146279442"><ele>95.0</ele><time>2026-04-26T13:26:32Z</time></trkpt><trkpt lat="44.68325272167412" lon="26.119782742228402"><ele>95.0</ele><time>2026-04-26T13:26:33Z</time></trkpt><trkpt lat="44.68335227585703" lon="26.11991480539381"><ele>95.0</ele><time>2026-04-26T13:26:34Z</time></trkpt><trkpt lat="44.68345709548125" lon="26.120041368284294"><ele>95.25</ele><time>2026-04-26T13:26:35Z</time></trkpt><trkpt lat="44.683539671783215" lon="26.120195389705618"><ele>95.5</ele><time>2026-04-26T13:26:36Z</time></trkpt><trkpt lat="44.68364056389217" lon="26.120336726490244"><ele>95.75</ele><time>2026-04-26T13:26:37Z</time></trkpt><trkpt lat="44.683746510171986" lon="26.120459391804843"><ele>96.0</ele><time>2026-04-26T13:26:38Z</time></trkpt><trkpt lat="44.68382791121589" lon="26.12058076000585"><ele>95.6</ele><time>2026-04-26T13:26:39Z</time></trkpt><trkpt lat="44.683900177655204" lon="26.12069218291255"><ele>95.19999999999999</ele><time>2026-04-26T13:26:40Z</time></trkpt><trkpt lat="44.683965794559036" lon="26.120792859834456"><ele>94.80000000000001</ele><time>2026-04-26T13:26:41Z</time></trkpt><trkpt lat="44.6840367551451" lon="26.120897196696152"><ele>94.4</ele><time>2026-04-26T13:26:42Z</time></trkpt><trkpt lat="44.68411619221327" lon="26.121024007671036"><ele>94.0</ele><time>2026-04-26T13:26:43Z</time></trkpt><trkpt lat="44.68419025491838" lon="26.121174264274856"><ele>94.0</ele><time>2026-04-26T13:26:44Z</time></trkpt><trkpt lat="44.6842526155313" lon="26.121337399440694"><ele>94.0</ele><time>2026-04-26T13:26:45Z</time></trkpt><trkpt lat="44.68430069807035" lon="26.121498507741595"><ele>94.0</ele><time>2026-04-26T13:26:46Z</time></trkpt><trkpt lat="44.68433561450727" lon="26.12165751584724"><ele>94.0</ele><time>2026-04-26T13:26:47Z</time></trkpt><trkpt lat="44.68436304849732" lon="26.121832943861083"><ele>94.25</ele><time>2026-04-26T13:26:48Z</time></trkpt><trkpt lat="44.68438086786848" lon="26.12201254893621"><ele>94.5</ele><time>2026-04-26T13:26:49Z</time></trkpt><trkpt lat="44.68438842179403" lon="26.122196906420413"><ele>94.75</ele><time>2026-04-26T13:26:50Z</time></trkpt><trkpt lat="44.68439463816506" lon="26.122386867243232"><ele>95.0</ele><time>2026-04-26T13:26:51Z</time></trkpt><trkpt lat="44.684404969089" lon="26.122592571277476"><ele>95.0</ele><time>2026-04-26T13:26:52Z</time></trkpt><trkpt lat="44.6844212422778" lon="26.122770338722876"><ele>95.0</ele><time>2026-04-26T13:26:53Z</time></trkpt><trkpt lat="44.684438655693356" lon="26.122930845622854"><ele>95.0</ele><time>2026-04-26T13:26:54Z</time></trkpt><trkpt lat="44.68446633125597" lon="26.12308814549536"><ele>95.0</ele><time>2026-04-26T13:26:55Z</time></trkpt><trkpt lat="44.68451132208316" lon="26.12328702204682"><ele>94.66666666666667</ele><time>2026-04-26T13:26:56Z</time></trkpt><trkpt lat="44.684572670340444" lon="26.123518044529334"><ele>94.33333333333333</ele><time>2026-04-26T13:26:57Z</time></trkpt><trkpt lat="44.68462579093636" lon="26.12372572987035"><ele>94.0</ele><time>2026-04-26T13:26:58Z</time></trkpt><trkpt lat="44.684669705108604" lon="26.123907390813798"><ele>94.0</ele><time>2026-04-26T13:26:59Z</time></trkpt><trkpt lat="44.68471289978237" lon="26.124075673097973"><ele>94.0</ele><time>2026-04-26T13:27:00Z</time></trkpt><trkpt lat="44.68475741739036" lon="26.124229077428375"><ele>94.0</ele><time>2026-04-26T13:27:01Z</time></trkpt><trkpt lat="44.684800358552316" lon="26.124381688729347"><ele>94.0</ele><time>2026-04-26T13:27:02Z</time></trkpt><trkpt lat="44.684843264485195" lon="26.12453957944127"><ele>94.0</ele><time>2026-04-26T13:27:03Z</time></trkpt><trkpt lat="44.684887185690336" lon="26.12470794642031"><ele>94.0</ele><time>2026-04-26T13:27:04Z</time></trkpt><trkpt lat="44.68493828272924" lon="26.124896540396072"><ele>94.0</ele><time>2026-04-26T13:27:05Z</time></trkpt><trkpt lat="44.68500138873558" lon="26.12511948757159"><ele>94.0</ele><time>2026-04-26T13:27:06Z</time></trkpt><trkpt lat="44.68507011890754" lon="26.125356178649604"><ele>94.0</ele><time>2026-04-26T13:27:07Z</time></trkpt><trkpt lat="44.68514039063444" lon="26.12559167951974"><ele>94.0</ele><time>2026-04-26T13:27:08Z</time></trkpt><trkpt lat="44.685219670665575" lon="26.1258661458527"><ele>94.0</ele><time>2026-04-26T13:27:09Z</time></trkpt><trkpt lat="44.6852956177366" lon="26.126156284935185"><ele>93.5</ele><time>2026-04-26T13:27:10Z</time></trkpt><trkpt lat="44.685371282233795" lon="26.12645694205502"><ele>93.0</ele><time>2026-04-26T13:27:11Z</time></trkpt><trkpt lat="44.685449562299965" lon="26.12677869099089"><ele>92.5</ele><time>2026-04-26T13:27:12Z</time></trkpt><trkpt lat="44.685528679226856" lon="26.12710424733119"><ele>92.0</ele><time>2026-04-26T13:27:13Z</time></trkpt><trkpt lat="44.685605754864916" lon="26.127409578329022"><ele>92.0</ele><time>2026-04-26T13:27:14Z</time></trkpt><trkpt lat="44.68568136778218" lon="26.127709249632556"><ele>92.0</ele><time>2026-04-26T13:27:15Z</time></trkpt><trkpt lat="44.685757385233686" lon="26.128004150996198"><ele>92.0</ele><time>2026-04-26T13:27:16Z</time></trkpt><trkpt lat="44.685833789716874" lon="26.128296339530106"><ele>92.33333333333334</ele><time>2026-04-26T13:27:17Z</time></trkpt><trkpt lat="44.685906676086844" lon="26.128578785342874"><ele>92.66666666666667</ele><time>2026-04-26T13:27:18Z</time></trkpt><trkpt lat="44.685970735705354" lon="26.128819841202745"><ele>93.0</ele><time>2026-04-26T13:27:19Z</time></trkpt><trkpt lat="44.68603272748716" lon="26.12905844578272"><ele>93.33333333333333</ele><time>2026-04-26T13:27:20Z</time></trkpt><trkpt lat="44.68609816602929" lon="26.129306636220658"><ele>93.66666666666666</ele><time>2026-04-26T13:27:21Z</time></trkpt><trkpt lat="44.686167690696585" lon="26.129557235697835"><ele>94.0</ele><time>2026-04-26T13:27:22Z</time></trkpt><trkpt lat="44.686237486013724" lon="26.129816596450937"><ele>94.0</ele><time>2026-04-26T13:27:23Z</time></trkpt><trkpt lat="44.68631200645996" lon="26.130102381916686"><ele>94.0</ele><time>2026-04-26T13:27:24Z</time></trkpt><trkpt lat="44.686382781257784" lon="26.130376185308197"><ele>94.0</ele><time>2026-04-26T13:27:25Z</time></trkpt><trkpt lat="44.686447230535585" lon="26.130628537936705"><ele>93.0</ele><time>2026-04-26T13:27:26Z</time></trkpt><trkpt lat="44.686509220354054" lon="26.130869324750634"><ele>92.0</ele><time>2026-04-26T13:27:27Z</time></trkpt><trkpt lat="44.6865751646068" lon="26.131111049269656"><ele>91.0</ele><time>2026-04-26T13:27:28Z</time></trkpt><trkpt lat="44.68664172057032" lon="26.131354566206635"><ele>91.33333333333333</ele><time>2026-04-26T13:27:29Z</time></trkpt><trkpt lat="44.68670073472788" lon="26.131598899925162"><ele>91.66666666666667</ele><time>2026-04-26T13:27:30Z</time></trkpt><trkpt lat="44.686762352220555" lon="26.13183784428944"><ele>92.0</ele><time>2026-04-26T13:27:31Z</time></trkpt><trkpt lat="44.68683449711859" lon="26.13207436254681"><ele>92.0</ele><time>2026-04-26T13:27:32Z</time></trkpt><trkpt lat="44.68688938707694" lon="26.13232407318507"><ele>92.0</ele><time>2026-04-26T13:27:33Z</time></trkpt><trkpt lat="44.686952860112754" lon="26.132572047469274"><ele>92.0</ele><time>2026-04-26T13:27:34Z</time></trkpt><trkpt lat="44.68701974682106" lon="26.13280261867358"><ele>91.0</ele><time>2026-04-26T13:27:35Z</time></trkpt><trkpt lat="44.68707960260057" lon="26.13303491751161"><ele>90.0</ele><time>2026-04-26T13:27:36Z</time></trkpt><trkpt lat="44.687139826463884" lon="26.13327729565902"><ele>89.0</ele><time>2026-04-26T13:27:37Z</time></trkpt><trkpt lat="44.68720245389724" lon="26.133518737073526"><ele>89.0</ele><time>2026-04-26T13:27:38Z</time></trkpt><trkpt lat="44.687265895060605" lon="26.13375464618953"><ele>89.0</ele><time>2026-04-26T13:27:39Z</time></trkpt><trkpt lat="44.68732234877548" lon="26.133970152089088"><ele>89.0</ele><time>2026-04-26T13:27:40Z</time></trkpt><trkpt lat="44.68737229750373" lon="26.134162093233762"><ele>89.25</ele><time>2026-04-26T13:27:41Z</time></trkpt><trkpt lat="44.68742097665489" lon="26.134343992402844"><ele>89.5</ele><time>2026-04-26T13:27:42.001Z</time></trkpt><trkpt lat="44.687469889330664" lon="26.134532872947265"><ele>89.75</ele><time>2026-04-26T13:27:43.001Z</time></trkpt><trkpt lat="44.68751710637835" lon="26.13472353727281"><ele>90.0</ele><time>2026-04-26T13:27:44.001Z</time></trkpt><trkpt lat="44.68756661091965" lon="26.134914525589817"><ele>90.0</ele><time>2026-04-26T13:27:45.001Z</time></trkpt><trkpt lat="44.68761540056892" lon="26.13509235149762"><ele>90.0</ele><time>2026-04-26T13:27:46.001Z</time></trkpt><trkpt lat="44.687660890726406" lon="26.135262065272578"><ele>90.0</ele><time>2026-04-26T13:27:47.001Z</time></trkpt><trkpt lat="44.68771133470271" lon="26.13545850128919"><ele>90.0</ele><time>2026-04-26T13:27:48.001Z</time></trkpt><trkpt lat="44.68776513761851" lon="26.135666924691744"><ele>90.0</ele><time>2026-04-26T13:27:49.001Z</time></trkpt><trkpt lat="44.68782160387454" lon="26.135869068007644"><ele>90.0</ele><time>2026-04-26T13:27:50.001Z</time></trkpt><trkpt lat="44.68787247800746" lon="26.13605057026348"><ele>90.0</ele><time>2026-04-26T13:27:51.001Z</time></trkpt><trkpt lat="44.68791790062658" lon="26.136222474406637"><ele>90.0</ele><time>2026-04-26T13:27:52.001Z</time></trkpt><trkpt lat="44.68796421207258" lon="26.13639811052271"><ele>90.5</ele><time>2026-04-26T13:27:53.001Z</time></trkpt><trkpt lat="44.688015174161684" lon="26.136583803050797"><ele>91.0</ele><time>2026-04-26T13:27:54.001Z</time></trkpt><trkpt lat="44.688065922288224" lon="26.136774291873966"><ele>91.5</ele><time>2026-04-26T13:27:55.001Z</time></trkpt><trkpt lat="44.68811660150606" lon="26.136969090220813"><ele>92.0</ele><time>2026-04-26T13:27:56.001Z</time></trkpt><trkpt lat="44.68816540131931" lon="26.137156446276204"><ele>92.0</ele><time>2026-04-26T13:27:57.001Z</time></trkpt><trkpt lat="44.688210595675855" lon="26.1373255098808"><ele>92.0</ele><time>2026-04-26T13:27:58.001Z</time></trkpt><trkpt lat="44.68825099540978" lon="26.137484122008267"><ele>92.0</ele><time>2026-04-26T13:27:59.001Z</time></trkpt><trkpt lat="44.688286667116664" lon="26.13763229565286"><ele>92.0</ele><time>2026-04-26T13:28:00.001Z</time></trkpt><trkpt lat="44.68832192947244" lon="26.137775530068215"><ele>92.0</ele><time>2026-04-26T13:28:01.001Z</time></trkpt><trkpt lat="44.68835952070794" lon="26.13792265500454"><ele>92.0</ele><time>2026-04-26T13:28:02.001Z</time></trkpt><trkpt lat="44.68840013472913" lon="26.138074925818504"><ele>92.0</ele><time>2026-04-26T13:28:03.001Z</time></trkpt><trkpt lat="44.68844116271991" lon="26.138226564375"><ele>92.0</ele><time>2026-04-26T13:28:04.001Z</time></trkpt><trkpt lat="44.68848167047058" lon="26.138375830378596"><ele>92.0</ele><time>2026-04-26T13:28:05.001Z</time></trkpt><trkpt lat="44.688520663083196" lon="26.138526485296584"><ele>92.0</ele><time>2026-04-26T13:28:06.001Z</time></trkpt><trkpt lat="44.688561658879046" lon="26.13867892809042"><ele>92.0</ele><time>2026-04-26T13:28:07.001Z</time></trkpt><trkpt lat="44.68860356645477" lon="26.138837666073467"><ele>92.0</ele><time>2026-04-26T13:28:08.001Z</time></trkpt><trkpt lat="44.68864635767568" lon="26.13900127876487"><ele>92.25</ele><time>2026-04-26T13:28:09.001Z</time></trkpt><trkpt lat="44.68868719396057" lon="26.13916665930459"><ele>92.5</ele><time>2026-04-26T13:28:10.001Z</time></trkpt><trkpt lat="44.6887281390795" lon="26.139336520215675"><ele>92.75</ele><time>2026-04-26T13:28:11.001Z</time></trkpt><trkpt lat="44.68877128505443" lon="26.139511654720014"><ele>93.0</ele><time>2026-04-26T13:28:12.001Z</time></trkpt><trkpt lat="44.6888171265202" lon="26.13968798882213"><ele>93.0</ele><time>2026-04-26T13:28:13.001Z</time></trkpt><trkpt lat="44.6888656797821" lon="26.139865125975245"><ele>93.0</ele><time>2026-04-26T13:28:14.001Z</time></trkpt><trkpt lat="44.688918012176856" lon="26.14004512444465"><ele>93.0</ele><time>2026-04-26T13:28:15.001Z</time></trkpt><trkpt lat="44.688966311379396" lon="26.140225451954553"><ele>93.0</ele><time>2026-04-26T13:28:16.001Z</time></trkpt><trkpt lat="44.689013083908165" lon="26.14040489859275"><ele>93.5</ele><time>2026-04-26T13:28:17.001Z</time></trkpt><trkpt lat="44.68905626822748" lon="26.140571056643754"><ele>94.0</ele><time>2026-04-26T13:28:18.001Z</time></trkpt><trkpt lat="44.68910067459506" lon="26.140742122464204"><ele>94.5</ele><time>2026-04-26T13:28:19.001Z</time></trkpt><trkpt lat="44.6891468774111" lon="26.140914677275617"><ele>95.0</ele><time>2026-04-26T13:28:20.001Z</time></trkpt><trkpt lat="44.68919155894788" lon="26.141082605155248"><ele>95.0</ele><time>2026-04-26T13:28:21.001Z</time></trkpt><trkpt lat="44.68922956629383" lon="26.14124832770118"><ele>95.0</ele><time>2026-04-26T13:28:22Z</time></trkpt><trkpt lat="44.68925824797128" lon="26.14142048528495"><ele>95.0</ele><time>2026-04-26T13:28:23Z</time></trkpt><trkpt lat="44.6892681770532" lon="26.141599040927098"><ele>95.0</ele><time>2026-04-26T13:28:24Z</time></trkpt><trkpt lat="44.689260683332236" lon="26.1417843882459"><ele>94.5</ele><time>2026-04-26T13:28:25Z</time></trkpt><trkpt lat="44.68924754518515" lon="26.14197805126464"><ele>94.0</ele><time>2026-04-26T13:28:26Z</time></trkpt><trkpt lat="44.68923687479036" lon="26.14217441519847"><ele>93.5</ele><time>2026-04-26T13:28:27Z</time></trkpt><trkpt lat="44.68922197106074" lon="26.142371695426743"><ele>93.0</ele><time>2026-04-26T13:28:28Z</time></trkpt><trkpt lat="44.6892088296389" lon="26.14256069968807"><ele>93.0</ele><time>2026-04-26T13:28:29Z</time></trkpt><trkpt lat="44.68920480676159" lon="26.142755874035075"><ele>93.0</ele><time>2026-04-26T13:28:30Z</time></trkpt><trkpt lat="44.689213128051776" lon="26.142956700814004"><ele>93.0</ele><time>2026-04-26T13:28:31Z</time></trkpt><trkpt lat="44.68923542437109" lon="26.143163565027013"><ele>93.0</ele><time>2026-04-26T13:28:32Z</time></trkpt><trkpt lat="44.68926143570987" lon="26.143378506259186"><ele>93.0</ele><time>2026-04-26T13:28:33Z</time></trkpt><trkpt lat="44.68928865838774" lon="26.143595871706403"><ele>93.0</ele><time>2026-04-26T13:28:34Z</time></trkpt><trkpt lat="44.68931815937936" lon="26.14380213723287"><ele>93.0</ele><time>2026-04-26T13:28:35Z</time></trkpt><trkpt lat="44.68934734561185" lon="26.143993836990095"><ele>93.0</ele><time>2026-04-26T13:28:36Z</time></trkpt><trkpt lat="44.689368452650335" lon="26.144192965560084"><ele>93.0</ele><time>2026-04-26T13:28:37Z</time></trkpt><trkpt lat="44.68936773649671" lon="26.144393712317694"><ele>93.0</ele><time>2026-04-26T13:28:38Z</time></trkpt><trkpt lat="44.689342418456725" lon="26.14459017029061"><ele>93.0</ele><time>2026-04-26T13:28:39Z</time></trkpt><trkpt lat="44.689289894273735" lon="26.14477952058816"><ele>93.0</ele><time>2026-04-26T13:28:40Z</time></trkpt><trkpt lat="44.6892227356383" lon="26.144958892072626"><ele>93.0</ele><time>2026-04-26T13:28:41Z</time></trkpt><trkpt lat="44.68912888450699" lon="26.145127037881362"><ele>93.0</ele><time>2026-04-26T13:28:42Z</time></trkpt><trkpt lat="44.68901773518182" lon="26.14528565606618"><ele>93.0</ele><time>2026-04-26T13:28:43Z</time></trkpt><trkpt lat="44.68890419710928" lon="26.145424665279815"><ele>93.0</ele><time>2026-04-26T13:28:44Z</time></trkpt><trkpt lat="44.68879194366751" lon="26.14556376648616"><ele>93.0</ele><time>2026-04-26T13:28:45Z</time></trkpt><trkpt lat="44.688692451696305" lon="26.145717199949104"><ele>93.0</ele><time>2026-04-26T13:28:46Z</time></trkpt><trkpt lat="44.68861042603386" lon="26.145899361195184"><ele>93.0</ele><time>2026-04-26T13:28:47Z</time></trkpt><trkpt lat="44.6885409030512" lon="26.14610999059598"><ele>93.0</ele><time>2026-04-26T13:28:48Z</time></trkpt><trkpt lat="44.6884830800988" lon="26.14634732350253"><ele>93.0</ele><time>2026-04-26T13:28:49Z</time></trkpt><trkpt lat="44.688433370070406" lon="26.14657317133689"><ele>92.5</ele><time>2026-04-26T13:28:50Z</time></trkpt><trkpt lat="44.688386578480056" lon="26.146780179377057"><ele>92.0</ele><time>2026-04-26T13:28:51Z</time></trkpt><trkpt lat="44.688343901201435" lon="26.146970292873814"><ele>91.5</ele><time>2026-04-26T13:28:52Z</time></trkpt><trkpt lat="44.6883031738996" lon="26.147155887498986"><ele>91.0</ele><time>2026-04-26T13:28:53Z</time></trkpt><trkpt lat="44.68825475512698" lon="26.14735479311494"><ele>91.0</ele><time>2026-04-26T13:28:54Z</time></trkpt><trkpt lat="44.68819646741355" lon="26.147523260774808"><ele>91.0</ele><time>2026-04-26T13:28:55Z</time></trkpt><trkpt lat="44.688130864502156" lon="26.147676319116563"><ele>91.0</ele><time>2026-04-26T13:28:56Z</time></trkpt><trkpt lat="44.68806438980334" lon="26.14782294964539"><ele>91.0</ele><time>2026-04-26T13:28:57Z</time></trkpt><trkpt lat="44.68798610416124" lon="26.1479741018359"><ele>91.0</ele><time>2026-04-26T13:28:58Z</time></trkpt><trkpt lat="44.687898218599976" lon="26.1481227618487"><ele>91.0</ele><time>2026-04-26T13:28:59Z</time></trkpt><trkpt lat="44.6878049137182" lon="26.148271219927885"><ele>91.0</ele><time>2026-04-26T13:29:00Z</time></trkpt><trkpt lat="44.68770875217012" lon="26.14842495481971"><ele>91.0</ele><time>2026-04-26T13:29:01Z</time></trkpt><trkpt lat="44.68761151485994" lon="26.14858487691637"><ele>91.0</ele><time>2026-04-26T13:29:02.001Z</time></trkpt><trkpt lat="44.68751761143027" lon="26.14873732060839"><ele>91.0</ele><time>2026-04-26T13:29:03.001Z</time></trkpt><trkpt lat="44.68742471352325" lon="26.14888404544484"><ele>91.0</ele><time>2026-04-26T13:29:04.001Z</time></trkpt><trkpt lat="44.68733390150633" lon="26.149026823096694"><ele>91.0</ele><time>2026-04-26T13:29:05.001Z</time></trkpt><trkpt lat="44.68724417557855" lon="26.149171504450997"><ele>90.75</ele><time>2026-04-26T13:29:06.001Z</time></trkpt><trkpt lat="44.687154882839664" lon="26.149316605283648"><ele>90.5</ele><time>2026-04-26T13:29:07.001Z</time></trkpt><trkpt lat="44.68706236186251" lon="26.149466505814647"><ele>90.25</ele><time>2026-04-26T13:29:08.001Z</time></trkpt><trkpt lat="44.68696752182675" lon="26.149610403461953"><ele>90.0</ele><time>2026-04-26T13:29:09.001Z</time></trkpt><trkpt lat="44.68687431662379" lon="26.149752209581333"><ele>90.25</ele><time>2026-04-26T13:29:10.001Z</time></trkpt><trkpt lat="44.686779596465406" lon="26.149889248721664"><ele>90.5</ele><time>2026-04-26T13:29:11.001Z</time></trkpt><trkpt lat="44.68668115039584" lon="26.150024134784513"><ele>90.75</ele><time>2026-04-26T13:29:12.001Z</time></trkpt><trkpt lat="44.68658205148437" lon="26.150162953865248"><ele>91.0</ele><time>2026-04-26T13:29:13.001Z</time></trkpt><trkpt lat="44.68648060463261" lon="26.15030061150048"><ele>91.0</ele><time>2026-04-26T13:29:14.001Z</time></trkpt><trkpt lat="44.68637570078529" lon="26.1504359064997"><ele>91.0</ele><time>2026-04-26T13:29:15.001Z</time></trkpt><trkpt lat="44.68627331990012" lon="26.150567519077914"><ele>91.0</ele><time>2026-04-26T13:29:16.001Z</time></trkpt><trkpt lat="44.68616873700681" lon="26.150690955690738"><ele>91.0</ele><time>2026-04-26T13:29:17.001Z</time></trkpt><trkpt lat="44.68606328423693" lon="26.15081696202993"><ele>91.25</ele><time>2026-04-26T13:29:18.001Z</time></trkpt><trkpt lat="44.685954225368626" lon="26.150942553246455"><ele>91.5</ele><time>2026-04-26T13:29:19.001Z</time></trkpt><trkpt lat="44.68584548405067" lon="26.151070583620264"><ele>91.75</ele><time>2026-04-26T13:29:20.001Z</time></trkpt><trkpt lat="44.68573484035366" lon="26.15120134330683"><ele>92.0</ele><time>2026-04-26T13:29:21.001Z</time></trkpt><trkpt lat="44.68562400206628" lon="26.151329653960683"><ele>92.0</ele><time>2026-04-26T13:29:22.001Z</time></trkpt><trkpt lat="44.685512587316566" lon="26.15145958480398"><ele>92.0</ele><time>2026-04-26T13:29:23.001Z</time></trkpt><trkpt lat="44.685400843660375" lon="26.15158886667286"><ele>92.0</ele><time>2026-04-26T13:29:24.001Z</time></trkpt><trkpt lat="44.68529242064852" lon="26.151716825599646"><ele>92.0</ele><time>2026-04-26T13:29:25.001Z</time></trkpt><trkpt lat="44.685186198247486" lon="26.15184090441852"><ele>92.0</ele><time>2026-04-26T13:29:26.001Z</time></trkpt><trkpt lat="44.68507900274562" lon="26.151968428952955"><ele>92.0</ele><time>2026-04-26T13:29:27.001Z</time></trkpt><trkpt lat="44.68496520795753" lon="26.152097776689438"><ele>92.0</ele><time>2026-04-26T13:29:28.001Z</time></trkpt><trkpt lat="44.68484418789296" lon="26.15223547027309"><ele>92.0</ele><time>2026-04-26T13:29:29.001Z</time></trkpt><trkpt lat="44.6847209819022" lon="26.15238207133042"><ele>92.0</ele><time>2026-04-26T13:29:30.001Z</time></trkpt><trkpt lat="44.684600228156704" lon="26.152523332965117"><ele>92.0</ele><time>2026-04-26T13:29:31.001Z</time></trkpt><trkpt lat="44.68448631963921" lon="26.15265661549138"><ele>92.0</ele><time>2026-04-26T13:29:32.001Z</time></trkpt><trkpt lat="44.68437203899852" lon="26.152786133084"><ele>92.0</ele><time>2026-04-26T13:29:33.001Z</time></trkpt><trkpt lat="44.684257050527854" lon="26.152914925773757"><ele>92.0</ele><time>2026-04-26T13:29:34.001Z</time></trkpt><trkpt lat="44.68413987931363" lon="26.153049110542792"><ele>92.0</ele><time>2026-04-26T13:29:35.001Z</time></trkpt><trkpt lat="44.684034426697835" lon="26.15317825086251"><ele>92.0</ele><time>2026-04-26T13:29:36.001Z</time></trkpt><trkpt lat="44.68391985536352" lon="26.153316749604496"><ele>92.0</ele><time>2026-04-26T13:29:37.001Z</time></trkpt><trkpt lat="44.68380848908588" lon="26.153444768131493"><ele>92.0</ele><time>2026-04-26T13:29:38.001Z</time></trkpt><trkpt lat="44.683697942769086" lon="26.15356403977205"><ele>92.0</ele><time>2026-04-26T13:29:39.001Z</time></trkpt><trkpt lat="44.683581838586555" lon="26.153692776226727"><ele>92.0</ele><time>2026-04-26T13:29:40.001Z</time></trkpt><trkpt lat="44.68347073472188" lon="26.153822832852494"><ele>92.0</ele><time>2026-04-26T13:29:41.001Z</time></trkpt><trkpt lat="44.68336372708448" lon="26.153950054611617"><ele>92.0</ele><time>2026-04-26T13:29:42.001Z</time></trkpt><trkpt lat="44.68326092684411" lon="26.1540727094609"><ele>92.0</ele><time>2026-04-26T13:29:43.001Z</time></trkpt><trkpt lat="44.683165533229484" lon="26.15418266227413"><ele>92.0</ele><time>2026-04-26T13:29:44.001Z</time></trkpt><trkpt lat="44.683071863248344" lon="26.154291632580946"><ele>91.75</ele><time>2026-04-26T13:29:45.001Z</time></trkpt><trkpt lat="44.68297502143759" lon="26.15440722674135"><ele>91.5</ele><time>2026-04-26T13:29:46.001Z</time></trkpt><trkpt lat="44.682876556405574" lon="26.154522510617298"><ele>91.25</ele><time>2026-04-26T13:29:47.001Z</time></trkpt><trkpt lat="44.68277322779201" lon="26.15463438837636"><ele>91.0</ele><time>2026-04-26T13:29:48.001Z</time></trkpt><trkpt lat="44.682672610147854" lon="26.15474658645754"><ele>90.75</ele><time>2026-04-26T13:29:49.001Z</time></trkpt><trkpt lat="44.68258352789664" lon="26.154858431154373"><ele>90.5</ele><time>2026-04-26T13:29:50.001Z</time></trkpt><trkpt lat="44.682501969340656" lon="26.154983973320306"><ele>90.25</ele><time>2026-04-26T13:29:51.001Z</time></trkpt><trkpt lat="44.6824315480231" lon="26.1551217898184"><ele>90.0</ele><time>2026-04-26T13:29:52.001Z</time></trkpt><trkpt lat="44.68237521310024" lon="26.155282861109395"><ele>89.75</ele><time>2026-04-26T13:29:53.001Z</time></trkpt><trkpt lat="44.68233650942083" lon="26.155468071369064"><ele>89.5</ele><time>2026-04-26T13:29:54.001Z</time></trkpt><trkpt lat="44.68230076395143" lon="26.155658614104752"><ele>89.25</ele><time>2026-04-26T13:29:55.002Z</time></trkpt><trkpt lat="44.68227984299406" lon="26.155864913954662"><ele>89.0</ele><time>2026-04-26T13:29:56.002Z</time></trkpt><trkpt lat="44.68227220564075" lon="26.15606381605447"><ele>89.5</ele><time>2026-04-26T13:29:57.002Z</time></trkpt><trkpt lat="44.682266660675936" lon="26.156235119716875"><ele>90.0</ele><time>2026-04-26T13:29:58.002Z</time></trkpt><trkpt lat="44.6822588320609" lon="26.156387037297364"><ele>90.5</ele><time>2026-04-26T13:29:59.002Z</time></trkpt><trkpt lat="44.682248985489785" lon="26.156546868007045"><ele>91.0</ele><time>2026-04-26T13:30:00.002Z</time></trkpt><trkpt lat="44.68224216826207" lon="26.156709749929"><ele>91.0</ele><time>2026-04-26T13:30:01.002Z</time></trkpt><trkpt lat="44.682234529575034" lon="26.156876708554623"><ele>91.0</ele><time>2026-04-26T13:30:02.002Z</time></trkpt><trkpt lat="44.682224329306294" lon="26.157051395112646"><ele>91.0</ele><time>2026-04-26T13:30:03.002Z</time></trkpt><trkpt lat="44.68221472548469" lon="26.157227899981205"><ele>91.0</ele><time>2026-04-26T13:30:04.002Z</time></trkpt><trkpt lat="44.68220861240672" lon="26.157390222580297"><ele>91.25</ele><time>2026-04-26T13:30:05.002Z</time></trkpt><trkpt lat="44.682199524702746" lon="26.15756467748842"><ele>91.5</ele><time>2026-04-26T13:30:06.002Z</time></trkpt><trkpt lat="44.682190274984556" lon="26.157746274047884"><ele>91.75</ele><time>2026-04-26T13:30:07.002Z</time></trkpt><trkpt lat="44.682180117625" lon="26.157934203068937"><ele>92.0</ele><time>2026-04-26T13:30:08.002Z</time></trkpt><trkpt lat="44.6821665427031" lon="26.158126059364097"><ele>92.0</ele><time>2026-04-26T13:30:09.002Z</time></trkpt><trkpt lat="44.68215387300448" lon="26.158323839880847"><ele>92.0</ele><time>2026-04-26T13:30:10.002Z</time></trkpt><trkpt lat="44.68214152227304" lon="26.158530053599122"><ele>92.0</ele><time>2026-04-26T13:30:11.002Z</time></trkpt><trkpt lat="44.68212854473816" lon="26.15874108461416"><ele>92.0</ele><time>2026-04-26T13:30:12.002Z</time></trkpt><trkpt lat="44.68211595931074" lon="26.15893930050383"><ele>92.25</ele><time>2026-04-26T13:30:13.002Z</time></trkpt><trkpt lat="44.68210622006138" lon="26.159111854286103"><ele>92.5</ele><time>2026-04-26T13:30:14.002Z</time></trkpt><trkpt lat="44.682099565398254" lon="26.159278330430205"><ele>92.75</ele><time>2026-04-26T13:30:15.002Z</time></trkpt><trkpt lat="44.68208956293362" lon="26.15945840720845"><ele>93.0</ele><time>2026-04-26T13:30:16.002Z</time></trkpt><trkpt lat="44.68208035908532" lon="26.159623919778426"><ele>93.0</ele><time>2026-04-26T13:30:17.002Z</time></trkpt><trkpt lat="44.68207307632186" lon="26.159779435435134"><ele>93.0</ele><time>2026-04-26T13:30:18.002Z</time></trkpt><trkpt lat="44.68206804957564" lon="26.15992832799187"><ele>93.0</ele><time>2026-04-26T13:30:19.002Z</time></trkpt><trkpt lat="44.68205745551245" lon="26.160069018926453"><ele>93.0</ele><time>2026-04-26T13:30:20.002Z</time></trkpt><trkpt lat="44.6820451211724" lon="26.160213234996185"><ele>93.0</ele><time>2026-04-26T13:30:21.002Z</time></trkpt><trkpt lat="44.682038479728185" lon="26.16036811983896"><ele>92.33333333333333</ele><time>2026-04-26T13:30:22.002Z</time></trkpt><trkpt lat="44.68203419362822" lon="26.16050850758082"><ele>91.66666666666667</ele><time>2026-04-26T13:30:23.002Z</time></trkpt><trkpt lat="44.68202943452086" lon="26.16063680104557"><ele>91.0</ele><time>2026-04-26T13:30:24.002Z</time></trkpt><trkpt lat="44.68202323217552" lon="26.160747415305345"><ele>90.33333333333334</ele><time>2026-04-26T13:30:25.002Z</time></trkpt><trkpt lat="44.682017296823794" lon="26.16085414476311"><ele>89.66666666666667</ele><time>2026-04-26T13:30:26.002Z</time></trkpt><trkpt lat="44.68201471155661" lon="26.160956551277145"><ele>89.0</ele><time>2026-04-26T13:30:27.002Z</time></trkpt><trkpt lat="44.68200398550438" lon="26.161112885105993"><ele>88.6</ele><time>2026-04-26T13:30:29.001Z</time></trkpt><trkpt lat="44.68214043563176" lon="26.161220662574614"><ele>88.2</ele><time>2026-04-26T13:30:31.001Z</time></trkpt><trkpt lat="44.68223826039238" lon="26.161211473935214"><ele>87.8</ele><time>2026-04-26T13:30:33.001Z</time></trkpt><trkpt lat="44.682221248734756" lon="26.161343464894735"><ele>87.39999999999999</ele><time>2026-04-26T13:30:36.001Z</time></trkpt><trkpt lat="44.68226842964512" lon="26.161412200709012"><ele>87.0</ele><time>2026-04-26T13:30:37.001Z</time></trkpt><trkpt lat="44.6822488780361" lon="26.16150815749834"><ele>87.16666666666667</ele><time>2026-04-26T13:30:39.001Z</time></trkpt><trkpt lat="44.68223222992715" lon="26.161619657240394"><ele>87.33333333333333</ele><time>2026-04-26T13:30:41.001Z</time></trkpt><trkpt lat="44.68223710068239" lon="26.161778035155493"><ele>87.5</ele><time>2026-04-26T13:30:43.001Z</time></trkpt><trkpt lat="44.68221754369994" lon="26.16186940965689"><ele>87.66666666666666</ele><time>2026-04-26T13:30:44.001Z</time></trkpt><trkpt lat="44.68220542192702" lon="26.16196756590256"><ele>87.83333333333333</ele><time>2026-04-26T13:30:45.001Z</time></trkpt><trkpt lat="44.682198340141525" lon="26.162101345089372"><ele>88.0</ele><time>2026-04-26T13:30:47.001Z</time></trkpt><trkpt lat="44.68226180673142" lon="26.162150644367486"><ele>88.0</ele><time>2026-04-26T13:30:49.001Z</time></trkpt><trkpt lat="44.68233548222599" lon="26.162130230798006"><ele>88.0</ele><time>2026-04-26T13:30:51.001Z</time></trkpt><trkpt lat="44.682401374680715" lon="26.162221350887968"><ele>88.0</ele><time>2026-04-26T13:30:53.001Z</time></trkpt><trkpt lat="44.6824957397459" lon="26.162279161377118"><ele>88.0</ele><time>2026-04-26T13:30:55.001Z</time></trkpt><trkpt lat="44.68256048274222" lon="26.162197776624037"><ele>88.0</ele><time>2026-04-26T13:30:57.001Z</time></trkpt><trkpt lat="44.68253767696359" lon="26.16228637506112"><ele>88.0</ele><time>2026-04-26T13:31:37.001Z</time></trkpt><trkpt lat="44.682523219589406" lon="26.162386724733913"><ele>88.0</ele><time>2026-04-26T13:35:07Z</time></trkpt><trkpt lat="44.682450445555986" lon="26.16237332167993"><ele>88.0</ele><time>2026-04-26T13:35:14Z</time></trkpt><trkpt lat="44.68238583374117" lon="26.162338385669965"><ele>88.0</ele><time>2026-04-26T13:35:20Z</time></trkpt><trkpt lat="44.682377003215684" lon="26.162247757656683"><ele>88.0</ele><time>2026-04-26T13:35:25Z</time></trkpt><trkpt lat="44.682381291464985" lon="26.162154021973507"><ele>88.0</ele><time>2026-04-26T13:35:34.001Z</time></trkpt><trkpt lat="44.682365979977014" lon="26.16197308984598"><ele>88.0</ele><time>2026-04-26T13:36:12.001Z</time></trkpt><trkpt lat="44.68243577893974" lon="26.16192603732142"><ele>88.0</ele><time>2026-04-26T13:36:16.001Z</time></trkpt><trkpt lat="44.68247080149541" lon="26.162012950284723"><ele>88.0</ele><time>2026-04-26T13:36:26.001Z</time></trkpt><trkpt lat="44.68236067445457" lon="26.161869959560644"><ele>88.0</ele><time>2026-04-26T13:36:30.036Z</time></trkpt><trkpt lat="44.68228774240766" lon="26.162107038455115"><ele>88.0</ele><time>2026-04-26T13:36:32.029Z</time></trkpt><trkpt lat="44.6822466265223" lon="26.162194242400197"><ele>88.0</ele><time>2026-04-26T13:36:35.023Z</time></trkpt><trkpt lat="44.68226622923349" lon="26.16203117339116"><ele>88.0</ele><time>2026-04-26T13:38:26.756Z</time></trkpt><trkpt lat="44.682503061687086" lon="26.161846821304007"><ele>88.0</ele><time>2026-04-26T13:38:57.016Z</time></trkpt><trkpt lat="44.68267497735444" lon="26.16167264429854"><ele>88.0</ele><time>2026-04-26T13:38:58.014Z</time></trkpt><trkpt lat="44.682797716252495" lon="26.161705128889878"><ele>88.0</ele><time>2026-04-26T13:39:05.016Z</time></trkpt><trkpt lat="44.682857891916576" lon="26.161772463339855"><ele>88.0</ele><time>2026-04-26T13:39:10.016Z</time></trkpt><trkpt lat="44.68275424135606" lon="26.161748144995055"><ele>88.0</ele><time>2026-04-26T13:39:13.014Z</time></trkpt><trkpt lat="44.682804609344984" lon="26.16180716052916"><ele>88.0</ele><time>2026-04-26T13:39:23.015Z</time></trkpt><trkpt lat="44.682775231261736" lon="26.16170904503945"><ele>88.0</ele><time>2026-04-26T13:39:31.014Z</time></trkpt><trkpt lat="44.682608507902266" lon="26.161863052327227"><ele>88.0</ele><time>2026-04-26T13:39:55.369Z</time></trkpt><trkpt lat="44.6822670593667" lon="26.16203076263746"><ele>88.0</ele><time>2026-04-26T13:40:49.729Z</time></trkpt></trkseg><trkseg><trkpt lat="44.7443366184212" lon="26.17075178398018"><ele>93.66666666666666</ele><time>2026-04-26T14:22:31.006Z</time></trkpt><trkpt lat="44.744332003360284" lon="26.170436208421037"><ele>93.33333333333333</ele><time>2026-04-26T14:22:33.005Z</time></trkpt><trkpt lat="44.74432971439868" lon="26.17026644152573"><ele>93.0</ele><time>2026-04-26T14:22:34.005Z</time></trkpt><trkpt lat="44.744325098700315" lon="26.170087765019932"><ele>93.0</ele><time>2026-04-26T14:22:35.005Z</time></trkpt><trkpt lat="44.74431733994753" lon="26.16989049566196"><ele>93.0</ele><time>2026-04-26T14:22:36.004Z</time></trkpt><trkpt lat="44.74431262966013" lon="26.169704885136795"><ele>93.0</ele><time>2026-04-26T14:22:37.004Z</time></trkpt><trkpt lat="44.74430847572242" lon="26.169462017100017"><ele>93.0</ele><time>2026-04-26T14:22:38.004Z</time></trkpt><trkpt lat="44.74430383013" lon="26.16920566838412"><ele>93.0</ele><time>2026-04-26T14:22:39.004Z</time></trkpt><trkpt lat="44.7443024281224" lon="26.168963620943213"><ele>93.0</ele><time>2026-04-26T14:22:40.004Z</time></trkpt><trkpt lat="44.7442981168214" lon="26.1687506797056"><ele>93.0</ele><time>2026-04-26T14:22:41.003Z</time></trkpt><trkpt lat="44.744296608269934" lon="26.168578299480068"><ele>93.0</ele><time>2026-04-26T14:22:42.003Z</time></trkpt><trkpt lat="44.74428778935626" lon="26.16842182814509"><ele>93.0</ele><time>2026-04-26T14:22:43.003Z</time></trkpt><trkpt lat="44.74428367763205" lon="26.168278839170156"><ele>93.0</ele><time>2026-04-26T14:22:44.003Z</time></trkpt><trkpt lat="44.744278412284736" lon="26.168153300523183"><ele>93.0</ele><time>2026-04-26T14:22:45.003Z</time></trkpt><trkpt lat="44.74428071418847" lon="26.167999949103326"><ele>93.0</ele><time>2026-04-26T14:22:46.002Z</time></trkpt><trkpt lat="44.74428004187622" lon="26.167842415487115"><ele>93.0</ele><time>2026-04-26T14:22:47.002Z</time></trkpt><trkpt lat="44.744280811948755" lon="26.167676538255574"><ele>93.0</ele><time>2026-04-26T14:22:48.002Z</time></trkpt><trkpt lat="44.744274595462095" lon="26.167485898606454"><ele>93.0</ele><time>2026-04-26T14:22:49.002Z</time></trkpt><trkpt lat="44.74425915860881" lon="26.16726161447011"><ele>93.0</ele><time>2026-04-26T14:22:50.002Z</time></trkpt><trkpt lat="44.74425188184469" lon="26.167052011217134"><ele>93.0</ele><time>2026-04-26T14:22:51.002Z</time></trkpt><trkpt lat="44.74424622875013" lon="26.166837071112838"><ele>92.66666666666667</ele><time>2026-04-26T14:22:52.002Z</time></trkpt><trkpt lat="44.74424295900184" lon="26.1665877306213"><ele>92.33333333333334</ele><time>2026-04-26T14:22:53.002Z</time></trkpt><trkpt lat="44.74423373732001" lon="26.166347523856764"><ele>92.0</ele><time>2026-04-26T14:22:54.002Z</time></trkpt><trkpt lat="44.74423535054419" lon="26.166140706364075"><ele>92.66666666666667</ele><time>2026-04-26T14:22:55.002Z</time></trkpt><trkpt lat="44.7442316532953" lon="26.165879969255602"><ele>93.33333333333333</ele><time>2026-04-26T14:22:56.001Z</time></trkpt><trkpt lat="44.74421129474503" lon="26.165595935224975"><ele>94.0</ele><time>2026-04-26T14:22:57.001Z</time></trkpt><trkpt lat="44.74420651422262" lon="26.16529790215703"><ele>94.0</ele><time>2026-04-26T14:22:58.001Z</time></trkpt><trkpt lat="44.744202295289455" lon="26.16497777796486"><ele>94.0</ele><time>2026-04-26T14:22:59.001Z</time></trkpt><trkpt lat="44.74419728678548" lon="26.164668276562953"><ele>94.0</ele><time>2026-04-26T14:23:00.001Z</time></trkpt><trkpt lat="44.74419110811077" lon="26.164385705991904"><ele>94.0</ele><time>2026-04-26T14:23:01.001Z</time></trkpt><trkpt lat="44.74418668097329" lon="26.164133740648108"><ele>94.0</ele><time>2026-04-26T14:23:02.001Z</time></trkpt><trkpt lat="44.74418012784497" lon="26.163909828551468"><ele>94.0</ele><time>2026-04-26T14:23:03.001Z</time></trkpt><trkpt lat="44.744173018350374" lon="26.16370140255109"><ele>94.0</ele><time>2026-04-26T14:23:04.001Z</time></trkpt><trkpt lat="44.74417040300036" lon="26.16350694450027"><ele>94.0</ele><time>2026-04-26T14:23:05.001Z</time></trkpt><trkpt lat="44.744165895690415" lon="26.16332741348214"><ele>94.0</ele><time>2026-04-26T14:23:06.001Z</time></trkpt><trkpt lat="44.74417298207794" lon="26.163130701294286"><ele>94.0</ele><time>2026-04-26T14:23:07.001Z</time></trkpt><trkpt lat="44.744169758233475" lon="26.16291121438184"><ele>94.33333333333333</ele><time>2026-04-26T14:23:08.001Z</time></trkpt><trkpt lat="44.74416578948232" lon="26.162664655567802"><ele>94.66666666666667</ele><time>2026-04-26T14:23:09.001Z</time></trkpt><trkpt lat="44.7441570422991" lon="26.16239885266153"><ele>95.0</ele><time>2026-04-26T14:23:10.001Z</time></trkpt><trkpt lat="44.74415060927738" lon="26.162107933673163"><ele>95.33333333333334</ele><time>2026-04-26T14:23:11.001Z</time></trkpt><trkpt lat="44.74414792448634" lon="26.161848366300312"><ele>95.66666666666667</ele><time>2026-04-26T14:23:12.001Z</time></trkpt><trkpt lat="44.744147576768896" lon="26.16162993482393"><ele>96.0</ele><time>2026-04-26T14:23:13.001Z</time></trkpt><trkpt lat="44.74413967647047" lon="26.16142084773452"><ele>96.25</ele><time>2026-04-26T14:23:14.001Z</time></trkpt><trkpt lat="44.74412917181682" lon="26.161239748534577"><ele>96.5</ele><time>2026-04-26T14:23:15.001Z</time></trkpt><trkpt lat="44.74411797405004" lon="26.16106368038637"><ele>96.75</ele><time>2026-04-26T14:23:16.001Z</time></trkpt><trkpt lat="44.74411470282155" lon="26.160904091673995"><ele>97.0</ele><time>2026-04-26T14:23:17.001Z</time></trkpt><trkpt lat="44.74412384999533" lon="26.160747693751745"><ele>96.66666666666667</ele><time>2026-04-26T14:23:18.001Z</time></trkpt><trkpt lat="44.74412216639308" lon="26.160539098047636"><ele>96.33333333333334</ele><time>2026-04-26T14:23:19.001Z</time></trkpt><trkpt lat="44.74410934772959" lon="26.160293075908697"><ele>96.0</ele><time>2026-04-26T14:23:20.001Z</time></trkpt><trkpt lat="44.74409138523787" lon="26.16001731110769"><ele>96.0</ele><time>2026-04-26T14:23:21.001Z</time></trkpt><trkpt lat="44.74408366578525" lon="26.159730560735557"><ele>96.0</ele><time>2026-04-26T14:23:22.001Z</time></trkpt><trkpt lat="44.74408336812721" lon="26.1594274625999"><ele>96.0</ele><time>2026-04-26T14:23:23.001Z</time></trkpt><trkpt lat="44.74408792044849" lon="26.15910577958687"><ele>96.0</ele><time>2026-04-26T14:23:24.001Z</time></trkpt><trkpt lat="44.74409163385101" lon="26.158769820469573"><ele>96.0</ele><time>2026-04-26T14:23:25.001Z</time></trkpt><trkpt lat="44.74407903989098" lon="26.158435990831705"><ele>95.66666666666667</ele><time>2026-04-26T14:23:26.001Z</time></trkpt><trkpt lat="44.74407185825543" lon="26.15812532465165"><ele>95.33333333333334</ele><time>2026-04-26T14:23:27.001Z</time></trkpt><trkpt lat="44.74406413843524" lon="26.157856924616013"><ele>95.0</ele><time>2026-04-26T14:23:28.001Z</time></trkpt><trkpt lat="44.744059988505064" lon="26.157600804870395"><ele>95.33333333333334</ele><time>2026-04-26T14:23:29.001Z</time></trkpt><trkpt lat="44.744057466935935" lon="26.157349115892814"><ele>95.66666666666667</ele><time>2026-04-26T14:23:30.001Z</time></trkpt><trkpt lat="44.74405311745876" lon="26.157101797639562"><ele>96.0</ele><time>2026-04-26T14:23:31.001Z</time></trkpt><trkpt lat="44.74404811017269" lon="26.156858388010022"><ele>96.0</ele><time>2026-04-26T14:23:32.001Z</time></trkpt><trkpt lat="44.74403981061946" lon="26.156611603585272"><ele>96.0</ele><time>2026-04-26T14:23:33.001Z</time></trkpt><trkpt lat="44.74403375890707" lon="26.156361620473568"><ele>96.0</ele><time>2026-04-26T14:23:34.001Z</time></trkpt><trkpt lat="44.74402882043587" lon="26.156114230433538"><ele>96.66666666666666</ele><time>2026-04-26T14:23:35.001Z</time></trkpt><trkpt lat="44.744021724679165" lon="26.155865051272922"><ele>97.33333333333333</ele><time>2026-04-26T14:23:36.001Z</time></trkpt><trkpt lat="44.74401574967596" lon="26.155613332342206"><ele>98.0</ele><time>2026-04-26T14:23:37.001Z</time></trkpt><trkpt lat="44.74401391020207" lon="26.155355108283096"><ele>98.0</ele><time>2026-04-26T14:23:38.001Z</time></trkpt><trkpt lat="44.7440098384412" lon="26.15507750820378"><ele>98.0</ele><time>2026-04-26T14:23:39.001Z</time></trkpt><trkpt lat="44.74400605185683" lon="26.154798860159204"><ele>98.0</ele><time>2026-04-26T14:23:40.001Z</time></trkpt><trkpt lat="44.74399332990648" lon="26.154552295059297"><ele>97.5</ele><time>2026-04-26T14:23:41.001Z</time></trkpt><trkpt lat="44.74399391710372" lon="26.154323631999656"><ele>97.0</ele><time>2026-04-26T14:23:42.001Z</time></trkpt><trkpt lat="44.74399955005877" lon="26.154123192378304"><ele>96.5</ele><time>2026-04-26T14:23:43.001Z</time></trkpt><trkpt lat="44.74400465853774" lon="26.153924422772292"><ele>96.0</ele><time>2026-04-26T14:23:44.001Z</time></trkpt><trkpt lat="44.7439971163574" lon="26.153748337842572"><ele>96.0</ele><time>2026-04-26T14:23:45.001Z</time></trkpt><trkpt lat="44.74398971915284" lon="26.153580985711717"><ele>96.0</ele><time>2026-04-26T14:23:46.001Z</time></trkpt><trkpt lat="44.74398299687827" lon="26.153425471986246"><ele>96.0</ele><time>2026-04-26T14:23:47.001Z</time></trkpt><trkpt lat="44.743980388186145" lon="26.153215632373715"><ele>96.0</ele><time>2026-04-26T14:23:48.001Z</time></trkpt><trkpt lat="44.74397542534561" lon="26.152955907070577"><ele>96.0</ele><time>2026-04-26T14:23:49.001Z</time></trkpt><trkpt lat="44.74396836859295" lon="26.152679938857634"><ele>96.0</ele><time>2026-04-26T14:23:50.001Z</time></trkpt><trkpt lat="44.743962298306066" lon="26.152383501484643"><ele>96.0</ele><time>2026-04-26T14:23:51.001Z</time></trkpt><trkpt lat="44.743956046062934" lon="26.152065096193272"><ele>96.5</ele><time>2026-04-26T14:23:52.001Z</time></trkpt><trkpt lat="44.74394874579744" lon="26.151730069530437"><ele>97.0</ele><time>2026-04-26T14:23:53.001Z</time></trkpt><trkpt lat="44.743938550220335" lon="26.151387587002613"><ele>97.0</ele><time>2026-04-26T14:23:54.001Z</time></trkpt><trkpt lat="44.743930130121996" lon="26.151032583825753"><ele>97.0</ele><time>2026-04-26T14:23:55.001Z</time></trkpt><trkpt lat="44.74392181918042" lon="26.150661656041038"><ele>96.5</ele><time>2026-04-26T14:23:56.001Z</time></trkpt><trkpt lat="44.743914336285854" lon="26.150282149598638"><ele>96.0</ele><time>2026-04-26T14:23:57.001Z</time></trkpt><trkpt lat="44.74390584460094" lon="26.149893903430424"><ele>97.0</ele><time>2026-04-26T14:23:58.001Z</time></trkpt><trkpt lat="44.74389718306714" lon="26.14949909207564"><ele>98.0</ele><time>2026-04-26T14:23:59.001Z</time></trkpt><trkpt lat="44.7438861438714" lon="26.149100012707933"><ele>98.0</ele><time>2026-04-26T14:24:00.001Z</time></trkpt><trkpt lat="44.74387938384759" lon="26.14869639106584"><ele>98.0</ele><time>2026-04-26T14:24:01.001Z</time></trkpt><trkpt lat="44.743872782814435" lon="26.148282897333154"><ele>97.0</ele><time>2026-04-26T14:24:02.001Z</time></trkpt><trkpt lat="44.7438633320461" lon="26.147864794785658"><ele>96.0</ele><time>2026-04-26T14:24:03.001Z</time></trkpt><trkpt lat="44.74385571265388" lon="26.14744213594413"><ele>96.5</ele><time>2026-04-26T14:24:04.001Z</time></trkpt><trkpt lat="44.74384888002003" lon="26.147013952816305"><ele>97.0</ele><time>2026-04-26T14:24:05.001Z</time></trkpt><trkpt lat="44.743841790713915" lon="26.146578279334246"><ele>96.5</ele><time>2026-04-26T14:24:06.001Z</time></trkpt><trkpt lat="44.74383529572397" lon="26.146147698068603"><ele>96.0</ele><time>2026-04-26T14:24:07.001Z</time></trkpt><trkpt lat="44.743826070917756" lon="26.145707877812107"><ele>96.0</ele><time>2026-04-26T14:24:08.001Z</time></trkpt><trkpt lat="44.74381726882152" lon="26.14526393585729"><ele>96.0</ele><time>2026-04-26T14:24:09.001Z</time></trkpt><trkpt lat="44.743806476844505" lon="26.144821129099633"><ele>96.0</ele><time>2026-04-26T14:24:10.001Z</time></trkpt><trkpt lat="44.743797475331384" lon="26.144373659717626"><ele>96.0</ele><time>2026-04-26T14:24:11.001Z</time></trkpt><trkpt lat="44.743787713878106" lon="26.143923891635925"><ele>96.0</ele><time>2026-04-26T14:24:12.001Z</time></trkpt><trkpt lat="44.743777775504505" lon="26.143474600929565"><ele>96.0</ele><time>2026-04-26T14:24:13.001Z</time></trkpt><trkpt lat="44.743767853771494" lon="26.143020862963805"><ele>95.5</ele><time>2026-04-26T14:24:14.001Z</time></trkpt><trkpt lat="44.74375993516224" lon="26.142566845505883"><ele>95.0</ele><time>2026-04-26T14:24:15.001Z</time></trkpt><trkpt lat="44.74375410141577" lon="26.14213328403583"><ele>96.0</ele><time>2026-04-26T14:24:16.001Z</time></trkpt><trkpt lat="44.74374725110923" lon="26.141740028982014"><ele>97.0</ele><time>2026-04-26T14:24:17.001Z</time></trkpt><trkpt lat="44.743737114588654" lon="26.14137365813892"><ele>97.5</ele><time>2026-04-26T14:24:18.001Z</time></trkpt><trkpt lat="44.74372604847032" lon="26.141024101857006"><ele>98.0</ele><time>2026-04-26T14:24:19.001Z</time></trkpt><trkpt lat="44.7437151272296" lon="26.140697663125007"><ele>98.33333333333333</ele><time>2026-04-26T14:24:20.001Z</time></trkpt><trkpt lat="44.743714564424494" lon="26.14039623193935"><ele>98.66666666666666</ele><time>2026-04-26T14:24:21.001Z</time></trkpt><trkpt lat="44.743712390329605" lon="26.14013156392389"><ele>99.0</ele><time>2026-04-26T14:24:22.001Z</time></trkpt><trkpt lat="44.74370753233835" lon="26.139884358753335"><ele>99.33333333333334</ele><time>2026-04-26T14:24:23.001Z</time></trkpt><trkpt lat="44.74370506903506" lon="26.139650325576216"><ele>99.66666666666667</ele><time>2026-04-26T14:24:24.001Z</time></trkpt><trkpt lat="44.74369985430141" lon="26.139428429260043"><ele>100.0</ele><time>2026-04-26T14:24:25.001Z</time></trkpt><trkpt lat="44.74369561158402" lon="26.139218063952484"><ele>99.75</ele><time>2026-04-26T14:24:26.001Z</time></trkpt><trkpt lat="44.74369033690519" lon="26.13900462622191"><ele>99.5</ele><time>2026-04-26T14:24:27.001Z</time></trkpt><trkpt lat="44.743685908375205" lon="26.13879908657182"><ele>99.25</ele><time>2026-04-26T14:24:28.001Z</time></trkpt><trkpt lat="44.74368126191527" lon="26.138613061355603"><ele>99.0</ele><time>2026-04-26T14:24:29.001Z</time></trkpt><trkpt lat="44.743685528800256" lon="26.138439041186498"><ele>99.0</ele><time>2026-04-26T14:24:30.001Z</time></trkpt><trkpt lat="44.743693450102185" lon="26.138276908950896"><ele>99.0</ele><time>2026-04-26T14:24:31.001Z</time></trkpt><trkpt lat="44.743694391379584" lon="26.138139959747832"><ele>99.0</ele><time>2026-04-26T14:24:32.001Z</time></trkpt><trkpt lat="44.743673488709184" lon="26.13802730068571"><ele>99.0</ele><time>2026-04-26T14:24:34.001Z</time></trkpt><trkpt lat="44.743605978145546" lon="26.138120319002926"><ele>99.0</ele><time>2026-04-26T14:24:37.999Z</time></trkpt><trkpt lat="44.743643305289254" lon="26.138215004279854"><ele>99.0</ele><time>2026-04-26T14:24:40Z</time></trkpt><trkpt lat="44.743664774919196" lon="26.13834819619208"><ele>99.0</ele><time>2026-04-26T14:24:41Z</time></trkpt><trkpt lat="44.743664597588456" lon="26.13853561663328"><ele>99.0</ele><time>2026-04-26T14:24:42Z</time></trkpt><trkpt lat="44.74365928164499" lon="26.138758788876185"><ele>99.0</ele><time>2026-04-26T14:24:43Z</time></trkpt><trkpt lat="44.7436578415782" lon="26.13901823524174"><ele>99.0</ele><time>2026-04-26T14:24:44Z</time></trkpt><trkpt lat="44.74366128736823" lon="26.1392980310045"><ele>99.0</ele><time>2026-04-26T14:24:45Z</time></trkpt><trkpt lat="44.74366766430562" lon="26.13960245084001"><ele>99.0</ele><time>2026-04-26T14:24:46Z</time></trkpt><trkpt lat="44.7436756167063" lon="26.139928390510573"><ele>99.0</ele><time>2026-04-26T14:24:47Z</time></trkpt><trkpt lat="44.743679726166505" lon="26.140267771744107"><ele>99.0</ele><time>2026-04-26T14:24:48Z</time></trkpt><trkpt lat="44.74368629819525" lon="26.140619393664863"><ele>98.5</ele><time>2026-04-26T14:24:49Z</time></trkpt><trkpt lat="44.74369255305491" lon="26.14098674636597"><ele>98.0</ele><time>2026-04-26T14:24:50Z</time></trkpt><trkpt lat="44.74370167979676" lon="26.14136833576848"><ele>97.5</ele><time>2026-04-26T14:24:51Z</time></trkpt><trkpt lat="44.743710838102096" lon="26.141737045337035"><ele>97.0</ele><time>2026-04-26T14:24:52Z</time></trkpt><trkpt lat="44.74371835810865" lon="26.142073763647364"><ele>96.0</ele><time>2026-04-26T14:24:53Z</time></trkpt><trkpt lat="44.743725957340594" lon="26.142414728279473"><ele>95.0</ele><time>2026-04-26T14:24:54Z</time></trkpt><trkpt lat="44.74373503077635" lon="26.142730322120872"><ele>95.0</ele><time>2026-04-26T14:24:55Z</time></trkpt><trkpt lat="44.743742612822544" lon="26.143051257991665"><ele>95.0</ele><time>2026-04-26T14:24:56Z</time></trkpt><trkpt lat="44.74374472930525" lon="26.14339830527859"><ele>95.5</ele><time>2026-04-26T14:24:57Z</time></trkpt><trkpt lat="44.74375305662347" lon="26.143765425787958"><ele>96.0</ele><time>2026-04-26T14:24:58Z</time></trkpt><trkpt lat="44.743761903842355" lon="26.144143304232955"><ele>96.0</ele><time>2026-04-26T14:24:59Z</time></trkpt><trkpt lat="44.74376822133599" lon="26.1445288087826"><ele>96.0</ele><time>2026-04-26T14:25:00Z</time></trkpt><trkpt lat="44.743773619866005" lon="26.144888999930888"><ele>96.0</ele><time>2026-04-26T14:25:01Z</time></trkpt><trkpt lat="44.74377989975157" lon="26.145217243479827"><ele>96.0</ele><time>2026-04-26T14:25:02Z</time></trkpt><trkpt lat="44.74378611013553" lon="26.14552006015106"><ele>96.0</ele><time>2026-04-26T14:25:03Z</time></trkpt><trkpt lat="44.74379157901993" lon="26.145806320474463"><ele>96.0</ele><time>2026-04-26T14:25:04Z</time></trkpt><trkpt lat="44.74379867226673" lon="26.14607497762907"><ele>96.0</ele><time>2026-04-26T14:25:05Z</time></trkpt><trkpt lat="44.74380537324142" lon="26.14632671692622"><ele>96.0</ele><time>2026-04-26T14:25:06Z</time></trkpt><trkpt lat="44.743809425179016" lon="26.146558134884703"><ele>96.25</ele><time>2026-04-26T14:25:07Z</time></trkpt><trkpt lat="44.74381389505454" lon="26.14677497574303"><ele>96.5</ele><time>2026-04-26T14:25:08Z</time></trkpt><trkpt lat="44.74381811327971" lon="26.14697770499973"><ele>96.75</ele><time>2026-04-26T14:25:09Z</time></trkpt><trkpt lat="44.74382250887164" lon="26.147170334377773"><ele>97.0</ele><time>2026-04-26T14:25:10Z</time></trkpt><trkpt lat="44.743825763850374" lon="26.14734843634244"><ele>96.75</ele><time>2026-04-26T14:25:11Z</time></trkpt><trkpt lat="44.743828408870534" lon="26.14752321129516"><ele>96.5</ele><time>2026-04-26T14:25:12Z</time></trkpt><trkpt lat="44.743830789497984" lon="26.147698899894163"><ele>96.25</ele><time>2026-04-26T14:25:13Z</time></trkpt><trkpt lat="44.74383516273517" lon="26.14786788387125"><ele>96.0</ele><time>2026-04-26T14:25:14Z</time></trkpt><trkpt lat="44.743839251651416" lon="26.148069746560573"><ele>96.66666666666666</ele><time>2026-04-26T14:25:15Z</time></trkpt><trkpt lat="44.74384333721908" lon="26.148322586123818"><ele>97.33333333333333</ele><time>2026-04-26T14:25:16Z</time></trkpt><trkpt lat="44.74384899037229" lon="26.148591490658973"><ele>98.0</ele><time>2026-04-26T14:25:17Z</time></trkpt><trkpt lat="44.74385490374358" lon="26.148883692638638"><ele>98.0</ele><time>2026-04-26T14:25:18Z</time></trkpt><trkpt lat="44.74386265743845" lon="26.14920062684285"><ele>98.0</ele><time>2026-04-26T14:25:19Z</time></trkpt><trkpt lat="44.74387156594201" lon="26.14953704401669"><ele>98.0</ele><time>2026-04-26T14:25:20Z</time></trkpt><trkpt lat="44.743876226139" lon="26.149853349750078"><ele>98.0</ele><time>2026-04-26T14:25:21Z</time></trkpt><trkpt lat="44.74388136829203" lon="26.150131262381734"><ele>98.0</ele><time>2026-04-26T14:25:22Z</time></trkpt><trkpt lat="44.743884533625206" lon="26.150371503366614"><ele>97.75</ele><time>2026-04-26T14:25:23Z</time></trkpt><trkpt lat="44.74388791578224" lon="26.1505708105314"><ele>97.5</ele><time>2026-04-26T14:25:24Z</time></trkpt><trkpt lat="44.743887988801475" lon="26.15070415921446"><ele>97.25</ele><time>2026-04-26T14:25:25Z</time></trkpt><trkpt lat="44.7438908317043" lon="26.150811318436144"><ele>97.0</ele><time>2026-04-26T14:25:27Z</time></trkpt><trkpt lat="44.74402606256711" lon="26.15102486140775"><ele>96.66666666666667</ele><time>2026-04-26T14:25:33Z</time></trkpt><trkpt lat="44.743924042032" lon="26.150622324219707"><ele>96.33333333333334</ele><time>2026-04-26T14:25:34Z</time></trkpt><trkpt lat="44.74392283975101" lon="26.150505146965077"><ele>96.0</ele><time>2026-04-26T14:25:37Z</time></trkpt><trkpt lat="44.74392397190081" lon="26.15038990006213"><ele>96.0</ele><time>2026-04-26T14:25:39Z</time></trkpt><trkpt lat="44.74392329004416" lon="26.150283819817876"><ele>96.0</ele><time>2026-04-26T14:25:40Z</time></trkpt><trkpt lat="44.743923259525396" lon="26.15012073942114"><ele>96.0</ele><time>2026-04-26T14:25:41Z</time></trkpt><trkpt lat="44.74391909275683" lon="26.14992528396968"><ele>96.0</ele><time>2026-04-26T14:25:42Z</time></trkpt><trkpt lat="44.74391474830006" lon="26.149693326645185"><ele>96.66666666666666</ele><time>2026-04-26T14:25:43Z</time></trkpt><trkpt lat="44.74390443369835" lon="26.149426773370614"><ele>97.33333333333333</ele><time>2026-04-26T14:25:44Z</time></trkpt><trkpt lat="44.74389716496408" lon="26.14915973385337"><ele>98.0</ele><time>2026-04-26T14:25:45Z</time></trkpt><trkpt lat="44.74389340492883" lon="26.148871155020288"><ele>98.0</ele><time>2026-04-26T14:25:46Z</time></trkpt><trkpt lat="44.74388610067624" lon="26.148553999689174"><ele>98.0</ele><time>2026-04-26T14:25:47Z</time></trkpt><trkpt lat="44.743878894967814" lon="26.148224508190577"><ele>97.0</ele><time>2026-04-26T14:25:48Z</time></trkpt><trkpt lat="44.74386989027826" lon="26.147885726643334"><ele>96.0</ele><time>2026-04-26T14:25:49Z</time></trkpt><trkpt lat="44.74386222248671" lon="26.147531000695086"><ele>96.5</ele><time>2026-04-26T14:25:50Z</time></trkpt><trkpt lat="44.743854368727916" lon="26.14716406251372"><ele>97.0</ele><time>2026-04-26T14:25:51Z</time></trkpt><trkpt lat="44.74384551027335" lon="26.146785857140017"><ele>96.5</ele><time>2026-04-26T14:25:52Z</time></trkpt><trkpt lat="44.74383928328219" lon="26.146399611651464"><ele>96.0</ele><time>2026-04-26T14:25:53Z</time></trkpt><trkpt lat="44.743834284285484" lon="26.146009564453674"><ele>96.0</ele><time>2026-04-26T14:25:54Z</time></trkpt><trkpt lat="44.74382779402788" lon="26.14560850081827"><ele>96.0</ele><time>2026-04-26T14:25:55Z</time></trkpt><trkpt lat="44.74382209196687" lon="26.145203878988074"><ele>96.0</ele><time>2026-04-26T14:25:56Z</time></trkpt><trkpt lat="44.74381254895295" lon="26.14482704078471"><ele>96.0</ele><time>2026-04-26T14:25:57Z</time></trkpt><trkpt lat="44.74380623558598" lon="26.144483803646892"><ele>96.0</ele><time>2026-04-26T14:25:58Z</time></trkpt><trkpt lat="44.74380198760562" lon="26.144174629930323"><ele>96.0</ele><time>2026-04-26T14:25:59Z</time></trkpt><trkpt lat="44.743795195102564" lon="26.143880792778987"><ele>96.0</ele><time>2026-04-26T14:26:00Z</time></trkpt><trkpt lat="44.7437898172748" lon="26.143615565433247"><ele>96.0</ele><time>2026-04-26T14:26:01Z</time></trkpt><trkpt lat="44.74378901312033" lon="26.14336643297082"><ele>96.0</ele><time>2026-04-26T14:26:02Z</time></trkpt><trkpt lat="44.74378873460457" lon="26.143147812884365"><ele>96.0</ele><time>2026-04-26T14:26:03Z</time></trkpt><trkpt lat="44.74377863896842" lon="26.142952120184255"><ele>95.8</ele><time>2026-04-26T14:26:04Z</time></trkpt><trkpt lat="44.74377119694866" lon="26.142771542351365"><ele>95.6</ele><time>2026-04-26T14:26:05Z</time></trkpt><trkpt lat="44.7437748317627" lon="26.142640745283444"><ele>95.4</ele><time>2026-04-26T14:26:06Z</time></trkpt><trkpt lat="44.74377085342329" lon="26.14251622013858"><ele>95.2</ele><time>2026-04-26T14:26:08Z</time></trkpt><trkpt lat="44.74371010401598" lon="26.142638794800558"><ele>95.0</ele><time>2026-04-26T14:26:13Z</time></trkpt><trkpt lat="44.743733699620144" lon="26.142799388618368"><ele>95.0</ele><time>2026-04-26T14:26:14Z</time></trkpt><trkpt lat="44.743737985018726" lon="26.142987355053847"><ele>95.0</ele><time>2026-04-26T14:26:15Z</time></trkpt><trkpt lat="44.743739972872106" lon="26.143218722011984"><ele>95.0</ele><time>2026-04-26T14:26:16Z</time></trkpt><trkpt lat="44.74374649260122" lon="26.143472267294346"><ele>95.33333333333334</ele><time>2026-04-26T14:26:17Z</time></trkpt><trkpt lat="44.74375459082346" lon="26.143750706295354"><ele>95.66666666666667</ele><time>2026-04-26T14:26:18Z</time></trkpt><trkpt lat="44.743758996561" lon="26.14404983603013"><ele>96.0</ele><time>2026-04-26T14:26:19Z</time></trkpt><trkpt lat="44.743762576234886" lon="26.1443642904032"><ele>96.0</ele><time>2026-04-26T14:26:20Z</time></trkpt><trkpt lat="44.74376789182705" lon="26.144700214455803"><ele>96.0</ele><time>2026-04-26T14:26:21Z</time></trkpt><trkpt lat="44.74377443586312" lon="26.145042229337538"><ele>96.0</ele><time>2026-04-26T14:26:22Z</time></trkpt><trkpt lat="44.74378067537607" lon="26.145397352422304"><ele>96.0</ele><time>2026-04-26T14:26:23Z</time></trkpt><trkpt lat="44.743787560844645" lon="26.14574714140562"><ele>96.0</ele><time>2026-04-26T14:26:24Z</time></trkpt><trkpt lat="44.743796519729464" lon="26.14609209356618"><ele>96.0</ele><time>2026-04-26T14:26:25Z</time></trkpt><trkpt lat="44.74380302599656" lon="26.146415867258447"><ele>96.33333333333334</ele><time>2026-04-26T14:26:26Z</time></trkpt><trkpt lat="44.743811002536084" lon="26.146710029091388"><ele>96.66666666666667</ele><time>2026-04-26T14:26:27Z</time></trkpt><trkpt lat="44.74381681936241" lon="26.146993992096757"><ele>97.0</ele><time>2026-04-26T14:26:28Z</time></trkpt><trkpt lat="44.74382047159262" lon="26.147276655541138"><ele>96.66666666666667</ele><time>2026-04-26T14:26:29.001Z</time></trkpt><trkpt lat="44.743825655036886" lon="26.147563865754833"><ele>96.33333333333334</ele><time>2026-04-26T14:26:30.001Z</time></trkpt><trkpt lat="44.743831707815914" lon="26.147849909785258"><ele>96.0</ele><time>2026-04-26T14:26:31.001Z</time></trkpt><trkpt lat="44.743837765104495" lon="26.14811826866532"><ele>96.66666666666666</ele><time>2026-04-26T14:26:32.001Z</time></trkpt><trkpt lat="44.74384021302481" lon="26.148366294739777"><ele>97.33333333333333</ele><time>2026-04-26T14:26:33.001Z</time></trkpt><trkpt lat="44.7438454480664" lon="26.14860265145835"><ele>98.0</ele><time>2026-04-26T14:26:34.001Z</time></trkpt><trkpt lat="44.74385177831776" lon="26.148832244751752"><ele>98.0</ele><time>2026-04-26T14:26:35.001Z</time></trkpt><trkpt lat="44.7438761969729" lon="26.14831678801175"><ele>98.0</ele><time>2026-04-26T14:26:55Z</time></trkpt><trkpt lat="44.74387173971767" lon="26.148118965401796"><ele>97.60000000000001</ele><time>2026-04-26T14:26:56Z</time></trkpt><trkpt lat="44.74386981244675" lon="26.147943601401536"><ele>97.2</ele><time>2026-04-26T14:26:57Z</time></trkpt><trkpt lat="44.74386870544698" lon="26.147790133298784"><ele>96.8</ele><time>2026-04-26T14:26:58Z</time></trkpt><trkpt lat="44.74386785578867" lon="26.147651065219655"><ele>96.4</ele><time>2026-04-26T14:26:59Z</time></trkpt><trkpt lat="44.743865621338955" lon="26.147528338847543"><ele>96.0</ele><time>2026-04-26T14:27:00Z</time></trkpt><trkpt lat="44.74386546978737" lon="26.147419266732193"><ele>96.0</ele><time>2026-04-26T14:27:01Z</time></trkpt><trkpt lat="44.7438707113062" lon="26.147326957933327"><ele>97.0</ele><time>2026-04-26T14:27:02Z</time></trkpt><trkpt lat="44.74387103657847" lon="26.14722560344887"><ele>97.0</ele><time>2026-04-26T14:27:04Z</time></trkpt><trkpt lat="44.743867964546816" lon="26.147135347769275"><ele>97.0</ele><time>2026-04-26T14:27:29Z</time></trkpt></trkseg><trkseg><trkpt lat="44.68251632096058" lon="26.157327695989196"><ele>94.2</ele><time>2026-04-26T15:37:51Z</time></trkpt></trkseg></trk></gpx>